<?xml version='1.0' encoding='UTF-8'?><gpx version="1.1" creator="JPX - https://github.com/jenetics/jpx" xmlns="http://www.topografix.com/GPX/1/1"><trk><trkseg><trkpt lat="44.1182617" lon="9.8030067"><ele>36.2</ele><time>2026-04-03T09:19:04.774Z</time></trkpt><trkpt lat="44.1181383" lon="9.8029783"><ele>36.400000000000006</ele><time>2026-04-03T09:19:12.774Z</time></trkpt><trkpt lat="44.1180583" lon="9.803"><ele>36.6</ele><time>2026-04-03T09:19:26.775Z</time></trkpt><trkpt lat="44.117995" lon="9.80302"><ele>36.800000000000004</ele><time>2026-04-03T09:19:29.774Z</time></trkpt><trkpt lat="44.1179167" lon="9.803005"><ele>37.0</ele><time>2026-04-03T09:19:51.774Z</time></trkpt><trkpt lat="44.11801" lon="9.8029567"><ele>37.0</ele><time>2026-04-03T09:19:59.774Z</time></trkpt><trkpt lat="44.1180933" lon="9.802955"><ele>37.0</ele><time>2026-04-03T09:20:07.775Z</time></trkpt><trkpt lat="44.1181733" lon="9.8029383"><ele>37.0</ele><time>2026-04-03T09:20:11.774Z</time></trkpt><trkpt lat="44.1181067" lon="9.8029233"><ele>37.0</ele><time>2026-04-03T09:20:35.775Z</time></trkpt><trkpt lat="44.1181767" lon="9.802885"><ele>37.0</ele><time>2026-04-03T09:21:14.775Z</time></trkpt><trkpt lat="44.1182483" lon="9.8029267"><ele>37.0</ele><time>2026-04-03T09:21:26.774Z</time></trkpt><trkpt lat="44.1181617" lon="9.80294"><ele>37.0</ele><time>2026-04-03T09:22:09.774Z</time></trkpt><trkpt lat="44.1181067" lon="9.8028733"><ele>37.0</ele><time>2026-04-03T09:23:14.775Z</time></trkpt><trkpt lat="44.11808" lon="9.8027883"><ele>37.0</ele><time>2026-04-03T09:23:20.775Z</time></trkpt><trkpt lat="44.11801" lon="9.8027617"><ele>37.0</ele><time>2026-04-03T09:23:24.774Z</time></trkpt><trkpt lat="44.1179317" lon="9.802795"><ele>37.0</ele><time>2026-04-03T09:23:27.775Z</time></trkpt><trkpt lat="44.11786" lon="9.8028383"><ele>37.0</ele><time>2026-04-03T09:23:30.774Z</time></trkpt><trkpt lat="44.1177883" lon="9.8028933"><ele>37.0</ele><time>2026-04-03T09:23:33.774Z</time></trkpt><trkpt lat="44.1177283" lon="9.8029533"><ele>37.0</ele><time>2026-04-03T09:23:36.774Z</time></trkpt><trkpt lat="44.1176767" lon="9.80304"><ele>37.0</ele><time>2026-04-03T09:23:39.775Z</time></trkpt><trkpt lat="44.11761" lon="9.803115"><ele>37.0</ele><time>2026-04-03T09:23:42.774Z</time></trkpt><trkpt lat="44.1175533" lon="9.80316"><ele>37.0</ele><time>2026-04-03T09:23:45.775Z</time></trkpt><trkpt lat="44.1175033" lon="9.8032183"><ele>37.0</ele><time>2026-04-03T09:23:48.774Z</time></trkpt><trkpt lat="44.1174467" lon="9.8032917"><ele>37.0</ele><time>2026-04-03T09:23:51.775Z</time></trkpt><trkpt lat="44.1173883" lon="9.80336"><ele>36.57142857142857</ele><time>2026-04-03T09:23:54.775Z</time></trkpt><trkpt lat="44.1173033" lon="9.80338"><ele>36.14285714285714</ele><time>2026-04-03T09:23:57.775Z</time></trkpt><trkpt lat="44.117245" lon="9.8034283"><ele>35.71428571428571</ele><time>2026-04-03T09:24:00.774Z</time></trkpt><trkpt lat="44.1171933" lon="9.803485"><ele>35.285714285714285</ele><time>2026-04-03T09:24:04.774Z</time></trkpt><trkpt lat="44.1171383" lon="9.8035417"><ele>34.857142857142854</ele><time>2026-04-03T09:24:08.775Z</time></trkpt><trkpt lat="44.117075" lon="9.803625"><ele>34.42857142857142</ele><time>2026-04-03T09:24:11.774Z</time></trkpt><trkpt lat="44.11706" lon="9.80372"><ele>34.0</ele><time>2026-04-03T09:24:14.773Z</time></trkpt><trkpt lat="44.1170217" lon="9.803815"><ele>34.0</ele><time>2026-04-03T09:24:20.774Z</time></trkpt><trkpt lat="44.11695" lon="9.80383"><ele>34.0</ele><time>2026-04-03T09:24:25.774Z</time></trkpt><trkpt lat="44.1168583" lon="9.8037917"><ele>34.0</ele><time>2026-04-03T09:24:28.773Z</time></trkpt><trkpt lat="44.1167967" lon="9.8037383"><ele>34.0</ele><time>2026-04-03T09:24:29.774Z</time></trkpt><trkpt lat="44.1167033" lon="9.8036617"><ele>34.0</ele><time>2026-04-03T09:24:31.773Z</time></trkpt><trkpt lat="44.1166167" lon="9.80361"><ele>34.0</ele><time>2026-04-03T09:24:33.774Z</time></trkpt><trkpt lat="44.1165083" lon="9.803585"><ele>32.75</ele><time>2026-04-03T09:24:35.773Z</time></trkpt><trkpt lat="44.116395" lon="9.8035917"><ele>31.5</ele><time>2026-04-03T09:24:37.773Z</time></trkpt><trkpt lat="44.1162817" lon="9.8036317"><ele>30.25</ele><time>2026-04-03T09:24:39.774Z</time></trkpt><trkpt lat="44.116165" lon="9.80368"><ele>29.0</ele><time>2026-04-03T09:24:41.774Z</time></trkpt><trkpt lat="44.1160533" lon="9.8037017"><ele>29.0</ele><time>2026-04-03T09:24:43.773Z</time></trkpt><trkpt lat="44.1159417" lon="9.8037167"><ele>29.0</ele><time>2026-04-03T09:24:45.774Z</time></trkpt><trkpt lat="44.1158283" lon="9.8037217"><ele>29.0</ele><time>2026-04-03T09:24:47.773Z</time></trkpt><trkpt lat="44.1157183" lon="9.8037033"><ele>29.0</ele><time>2026-04-03T09:24:49.774Z</time></trkpt><trkpt lat="44.1156183" lon="9.8036683"><ele>29.0</ele><time>2026-04-03T09:24:51.773Z</time></trkpt><trkpt lat="44.1155267" lon="9.803615"><ele>28.6</ele><time>2026-04-03T09:24:53.773Z</time></trkpt><trkpt lat="44.1154317" lon="9.803565"><ele>28.2</ele><time>2026-04-03T09:24:55.774Z</time></trkpt><trkpt lat="44.1153417" lon="9.80351"><ele>27.800000000000004</ele><time>2026-04-03T09:24:57.774Z</time></trkpt><trkpt lat="44.1152533" lon="9.8034533"><ele>27.400000000000002</ele><time>2026-04-03T09:24:59.774Z</time></trkpt><trkpt lat="44.115165" lon="9.8033967"><ele>27.0</ele><time>2026-04-03T09:25:01.774Z</time></trkpt><trkpt lat="44.11508" lon="9.8033383"><ele>27.0</ele><time>2026-04-03T09:25:03.774Z</time></trkpt><trkpt lat="44.11499" lon="9.8032883"><ele>27.000000000000004</ele><time>2026-04-03T09:25:05.773Z</time></trkpt><trkpt lat="44.114905" lon="9.8032283"><ele>27.000000000000004</ele><time>2026-04-03T09:25:07.774Z</time></trkpt><trkpt lat="44.11482" lon="9.8031683"><ele>27.0</ele><time>2026-04-03T09:25:09.773Z</time></trkpt><trkpt lat="44.1147267" lon="9.8031167"><ele>27.0</ele><time>2026-04-03T09:25:11.773Z</time></trkpt><trkpt lat="44.11463" lon="9.803065"><ele>26.6</ele><time>2026-04-03T09:25:13.774Z</time></trkpt><trkpt lat="44.1145417" lon="9.803015"><ele>26.200000000000003</ele><time>2026-04-03T09:25:15.773Z</time></trkpt><trkpt lat="44.1144483" lon="9.8029717"><ele>25.8</ele><time>2026-04-03T09:25:17.774Z</time></trkpt><trkpt lat="44.11435" lon="9.8029433"><ele>25.4</ele><time>2026-04-03T09:25:19.774Z</time></trkpt><trkpt lat="44.11425" lon="9.8029283"><ele>25.0</ele><time>2026-04-03T09:25:21.773Z</time></trkpt><trkpt lat="44.1141567" lon="9.8029183"><ele>25.0</ele><time>2026-04-03T09:25:23.773Z</time></trkpt><trkpt lat="44.114065" lon="9.80291"><ele>25.0</ele><time>2026-04-03T09:25:25.774Z</time></trkpt><trkpt lat="44.1139783" lon="9.8028933"><ele>25.0</ele><time>2026-04-03T09:25:27.773Z</time></trkpt><trkpt lat="44.113885" lon="9.8028833"><ele>25.0</ele><time>2026-04-03T09:25:29.773Z</time></trkpt><trkpt lat="44.113795" lon="9.8028733"><ele>25.0</ele><time>2026-04-03T09:25:31.773Z</time></trkpt><trkpt lat="44.1137083" lon="9.8028617"><ele>25.000000000000004</ele><time>2026-04-03T09:25:33.774Z</time></trkpt><trkpt lat="44.1136167" lon="9.802845"><ele>25.0</ele><time>2026-04-03T09:25:35.773Z</time></trkpt><trkpt lat="44.113535" lon="9.8028183"><ele>25.0</ele><time>2026-04-03T09:25:37.774Z</time></trkpt><trkpt lat="44.1134383" lon="9.8028083"><ele>25.0</ele><time>2026-04-03T09:25:39.773Z</time></trkpt><trkpt lat="44.1133467" lon="9.8028133"><ele>25.000000000000004</ele><time>2026-04-03T09:25:41.773Z</time></trkpt><trkpt lat="44.1132633" lon="9.8028083"><ele>25.0</ele><time>2026-04-03T09:25:43.774Z</time></trkpt><trkpt lat="44.1131767" lon="9.8028"><ele>25.000000000000004</ele><time>2026-04-03T09:25:45.773Z</time></trkpt><trkpt lat="44.1130917" lon="9.802775"><ele>25.0</ele><time>2026-04-03T09:25:47.774Z</time></trkpt><trkpt lat="44.1130117" lon="9.8027533"><ele>25.0</ele><time>2026-04-03T09:25:49.773Z</time></trkpt><trkpt lat="44.1129233" lon="9.8027283"><ele>25.0</ele><time>2026-04-03T09:25:51.774Z</time></trkpt><trkpt lat="44.1128417" lon="9.8026867"><ele>25.000000000000004</ele><time>2026-04-03T09:25:53.773Z</time></trkpt><trkpt lat="44.1127617" lon="9.8026417"><ele>25.0</ele><time>2026-04-03T09:25:55.774Z</time></trkpt><trkpt lat="44.112685" lon="9.802595"><ele>25.000000000000004</ele><time>2026-04-03T09:25:57.774Z</time></trkpt><trkpt lat="44.1126067" lon="9.8025483"><ele>25.0</ele><time>2026-04-03T09:25:59.773Z</time></trkpt><trkpt lat="44.1125317" lon="9.8025033"><ele>25.0</ele><time>2026-04-03T09:26:01.774Z</time></trkpt><trkpt lat="44.1124583" lon="9.8024567"><ele>25.0</ele><time>2026-04-03T09:26:03.774Z</time></trkpt><trkpt lat="44.1123767" lon="9.8024083"><ele>25.000000000000004</ele><time>2026-04-03T09:26:05.773Z</time></trkpt><trkpt lat="44.11229" lon="9.802345"><ele>25.0</ele><time>2026-04-03T09:26:07.774Z</time></trkpt><trkpt lat="44.112195" lon="9.802295"><ele>24.166666666666668</ele><time>2026-04-03T09:26:09.774Z</time></trkpt><trkpt lat="44.1121083" lon="9.8022683"><ele>23.333333333333336</ele><time>2026-04-03T09:26:11.773Z</time></trkpt><trkpt lat="44.1120433" lon="9.80225"><ele>22.5</ele><time>2026-04-03T09:26:13.774Z</time></trkpt><trkpt lat="44.111965" lon="9.8022083"><ele>21.666666666666668</ele><time>2026-04-03T09:26:15.774Z</time></trkpt><trkpt lat="44.1118933" lon="9.80214"><ele>20.833333333333336</ele><time>2026-04-03T09:26:17.774Z</time></trkpt><trkpt lat="44.1118117" lon="9.8020733"><ele>20.0</ele><time>2026-04-03T09:26:19.773Z</time></trkpt><trkpt lat="44.1117217" lon="9.80201"><ele>20.0</ele><time>2026-04-03T09:26:21.773Z</time></trkpt><trkpt lat="44.1116367" lon="9.8019633"><ele>20.0</ele><time>2026-04-03T09:26:23.773Z</time></trkpt><trkpt lat="44.1115367" lon="9.801935"><ele>20.0</ele><time>2026-04-03T09:26:25.774Z</time></trkpt><trkpt lat="44.11143" lon="9.8019267"><ele>20.0</ele><time>2026-04-03T09:26:27.774Z</time></trkpt><trkpt lat="44.1113217" lon="9.80193"><ele>20.0</ele><time>2026-04-03T09:26:29.774Z</time></trkpt><trkpt lat="44.1112117" lon="9.8019483"><ele>19.5</ele><time>2026-04-03T09:26:31.774Z</time></trkpt><trkpt lat="44.1110967" lon="9.8019917"><ele>19.0</ele><time>2026-04-03T09:26:33.773Z</time></trkpt><trkpt lat="44.1109917" lon="9.8020517"><ele>18.5</ele><time>2026-04-03T09:26:35.773Z</time></trkpt><trkpt lat="44.110895" lon="9.8021417"><ele>18.0</ele><time>2026-04-03T09:26:37.774Z</time></trkpt><trkpt lat="44.1108083" lon="9.8022517"><ele>17.8</ele><time>2026-04-03T09:26:39.773Z</time></trkpt><trkpt lat="44.1107283" lon="9.8023667"><ele>17.6</ele><time>2026-04-03T09:26:41.774Z</time></trkpt><trkpt lat="44.11065" lon="9.8024933"><ele>17.4</ele><time>2026-04-03T09:26:43.773Z</time></trkpt><trkpt lat="44.1105667" lon="9.80262"><ele>17.2</ele><time>2026-04-03T09:26:45.773Z</time></trkpt><trkpt lat="44.1105217" lon="9.8026817"><ele>17.0</ele><time>2026-04-03T09:26:46.773Z</time></trkpt><trkpt lat="44.1104333" lon="9.802785"><ele>16.25</ele><time>2026-04-03T09:26:48.773Z</time></trkpt><trkpt lat="44.1103467" lon="9.8029"><ele>15.5</ele><time>2026-04-03T09:26:50.774Z</time></trkpt><trkpt lat="44.1102683" lon="9.803015"><ele>14.75</ele><time>2026-04-03T09:26:52.774Z</time></trkpt><trkpt lat="44.110205" lon="9.803135"><ele>14.0</ele><time>2026-04-03T09:26:54.773Z</time></trkpt><trkpt lat="44.1101433" lon="9.8032617"><ele>14.0</ele><time>2026-04-03T09:26:56.773Z</time></trkpt><trkpt lat="44.110085" lon="9.803375"><ele>13.999999999999998</ele><time>2026-04-03T09:26:58.773Z</time></trkpt><trkpt lat="44.1100233" lon="9.8034833"><ele>13.999999999999998</ele><time>2026-04-03T09:27:00.773Z</time></trkpt><trkpt lat="44.1099683" lon="9.803605"><ele>14.0</ele><time>2026-04-03T09:27:02.774Z</time></trkpt><trkpt lat="44.1099083" lon="9.8037117"><ele>14.0</ele><time>2026-04-03T09:27:04.774Z</time></trkpt><trkpt lat="44.1098533" lon="9.8038183"><ele>14.2</ele><time>2026-04-03T09:27:06.773Z</time></trkpt><trkpt lat="44.1097917" lon="9.8039333"><ele>14.399999999999999</ele><time>2026-04-03T09:27:08.773Z</time></trkpt><trkpt lat="44.10973" lon="9.8040367"><ele>14.6</ele><time>2026-04-03T09:27:10.774Z</time></trkpt><trkpt lat="44.1096667" lon="9.80415"><ele>14.8</ele><time>2026-04-03T09:27:12.774Z</time></trkpt><trkpt lat="44.1096033" lon="9.8042633"><ele>15.0</ele><time>2026-04-03T09:27:14.774Z</time></trkpt><trkpt lat="44.1095467" lon="9.804365"><ele>15.0</ele><time>2026-04-03T09:27:16.774Z</time></trkpt><trkpt lat="44.1094967" lon="9.80449"><ele>15.0</ele><time>2026-04-03T09:27:18.774Z</time></trkpt><trkpt lat="44.1094333" lon="9.80459"><ele>15.0</ele><time>2026-04-03T09:27:20.774Z</time></trkpt><trkpt lat="44.1093617" lon="9.80468"><ele>15.0</ele><time>2026-04-03T09:27:22.774Z</time></trkpt><trkpt lat="44.1092833" lon="9.804765"><ele>15.0</ele><time>2026-04-03T09:27:24.774Z</time></trkpt><trkpt lat="44.1092233" lon="9.8048617"><ele>15.0</ele><time>2026-04-03T09:27:26.774Z</time></trkpt><trkpt lat="44.1091583" lon="9.8049533"><ele>15.0</ele><time>2026-04-03T09:27:28.774Z</time></trkpt><trkpt lat="44.1091" lon="9.8050533"><ele>15.0</ele><time>2026-04-03T09:27:30.774Z</time></trkpt><trkpt lat="44.1090433" lon="9.8051517"><ele>15.0</ele><time>2026-04-03T09:27:32.773Z</time></trkpt><trkpt lat="44.1089867" lon="9.8052433"><ele>15.0</ele><time>2026-04-03T09:27:34.773Z</time></trkpt><trkpt lat="44.1089317" lon="9.80533"><ele>15.0</ele><time>2026-04-03T09:27:36.774Z</time></trkpt><trkpt lat="44.1088733" lon="9.8054167"><ele>15.166666666666666</ele><time>2026-04-03T09:27:38.773Z</time></trkpt><trkpt lat="44.10881" lon="9.8054783"><ele>15.333333333333332</ele><time>2026-04-03T09:27:40.773Z</time></trkpt><trkpt lat="44.1087417" lon="9.805425"><ele>15.5</ele><time>2026-04-03T09:27:43.774Z</time></trkpt><trkpt lat="44.1086917" lon="9.80535"><ele>15.666666666666666</ele><time>2026-04-03T09:27:45.773Z</time></trkpt><trkpt lat="44.1086383" lon="9.8052817"><ele>15.833333333333332</ele><time>2026-04-03T09:27:47.774Z</time></trkpt><trkpt lat="44.1085767" lon="9.805205"><ele>16.0</ele><time>2026-04-03T09:27:49.773Z</time></trkpt><trkpt lat="44.1085117" lon="9.8051217"><ele>16.166666666666664</ele><time>2026-04-03T09:27:51.774Z</time></trkpt><trkpt lat="44.1084467" lon="9.8050467"><ele>16.333333333333332</ele><time>2026-04-03T09:27:53.774Z</time></trkpt><trkpt lat="44.1083817" lon="9.804975"><ele>16.5</ele><time>2026-04-03T09:27:55.773Z</time></trkpt><trkpt lat="44.108315" lon="9.8049167"><ele>16.666666666666668</ele><time>2026-04-03T09:27:57.774Z</time></trkpt><trkpt lat="44.1082517" lon="9.80486"><ele>16.833333333333336</ele><time>2026-04-03T09:27:59.773Z</time></trkpt><trkpt lat="44.10819" lon="9.8047967"><ele>17.0</ele><time>2026-04-03T09:28:01.774Z</time></trkpt><trkpt lat="44.1081417" lon="9.804725"><ele>17.166666666666668</ele><time>2026-04-03T09:28:03.773Z</time></trkpt><trkpt lat="44.1080783" lon="9.8046483"><ele>17.333333333333336</ele><time>2026-04-03T09:28:05.773Z</time></trkpt><trkpt lat="44.1080117" lon="9.8045767"><ele>17.5</ele><time>2026-04-03T09:28:07.773Z</time></trkpt><trkpt lat="44.1079483" lon="9.8045133"><ele>17.666666666666668</ele><time>2026-04-03T09:28:09.774Z</time></trkpt><trkpt lat="44.1078883" lon="9.8044433"><ele>17.833333333333332</ele><time>2026-04-03T09:28:11.774Z</time></trkpt><trkpt lat="44.1078333" lon="9.8043817"><ele>18.0</ele><time>2026-04-03T09:28:13.773Z</time></trkpt><trkpt lat="44.1077867" lon="9.8043217"><ele>18.0</ele><time>2026-04-03T09:28:15.773Z</time></trkpt><trkpt lat="44.1077117" lon="9.804265"><ele>18.0</ele><time>2026-04-03T09:28:19.773Z</time></trkpt><trkpt lat="44.1076367" lon="9.8041867"><ele>18.0</ele><time>2026-04-03T09:28:22.773Z</time></trkpt><trkpt lat="44.107585" lon="9.80413"><ele>18.0</ele><time>2026-04-03T09:28:24.773Z</time></trkpt><trkpt lat="44.1075283" lon="9.8040767"><ele>18.0</ele><time>2026-04-03T09:28:26.774Z</time></trkpt><trkpt lat="44.1074667" lon="9.8040233"><ele>18.0</ele><time>2026-04-03T09:28:28.774Z</time></trkpt><trkpt lat="44.1074033" lon="9.8039733"><ele>18.28571428571429</ele><time>2026-04-03T09:28:30.774Z</time></trkpt><trkpt lat="44.107335" lon="9.8039267"><ele>18.571428571428573</ele><time>2026-04-03T09:28:32.773Z</time></trkpt><trkpt lat="44.1072833" lon="9.80387"><ele>18.857142857142858</ele><time>2026-04-03T09:28:34.774Z</time></trkpt><trkpt lat="44.1072183" lon="9.803815"><ele>19.142857142857146</ele><time>2026-04-03T09:28:36.773Z</time></trkpt><trkpt lat="44.1071483" lon="9.8037667"><ele>19.42857142857143</ele><time>2026-04-03T09:28:38.774Z</time></trkpt><trkpt lat="44.1070817" lon="9.803725"><ele>19.714285714285715</ele><time>2026-04-03T09:28:40.773Z</time></trkpt><trkpt lat="44.1070067" lon="9.80369"><ele>20.0</ele><time>2026-04-03T09:28:42.774Z</time></trkpt><trkpt lat="44.1069267" lon="9.803655"><ele>20.0</ele><time>2026-04-03T09:28:44.774Z</time></trkpt><trkpt lat="44.10685" lon="9.8036217"><ele>20.0</ele><time>2026-04-03T09:28:46.774Z</time></trkpt><trkpt lat="44.1067717" lon="9.8035883"><ele>20.0</ele><time>2026-04-03T09:28:48.774Z</time></trkpt><trkpt lat="44.1066917" lon="9.8035583"><ele>20.0</ele><time>2026-04-03T09:28:50.773Z</time></trkpt><trkpt lat="44.1066117" lon="9.8035417"><ele>20.0</ele><time>2026-04-03T09:28:52.774Z</time></trkpt><trkpt lat="44.106535" lon="9.8035267"><ele>20.0</ele><time>2026-04-03T09:28:54.773Z</time></trkpt><trkpt lat="44.1064583" lon="9.8035217"><ele>19.666666666666668</ele><time>2026-04-03T09:28:56.774Z</time></trkpt><trkpt lat="44.106375" lon="9.8035233"><ele>19.333333333333336</ele><time>2026-04-03T09:28:58.774Z</time></trkpt><trkpt lat="44.1062933" lon="9.8035233"><ele>19.0</ele><time>2026-04-03T09:29:00.774Z</time></trkpt><trkpt lat="44.1062117" lon="9.8035267"><ele>18.666666666666668</ele><time>2026-04-03T09:29:02.774Z</time></trkpt><trkpt lat="44.10613" lon="9.8035317"><ele>18.333333333333332</ele><time>2026-04-03T09:29:04.773Z</time></trkpt><trkpt lat="44.10605" lon="9.803535"><ele>18.0</ele><time>2026-04-03T09:29:06.773Z</time></trkpt><trkpt lat="44.1059733" lon="9.8035433"><ele>18.0</ele><time>2026-04-03T09:29:08.773Z</time></trkpt><trkpt lat="44.1058917" lon="9.8035617"><ele>18.0</ele><time>2026-04-03T09:29:10.773Z</time></trkpt><trkpt lat="44.1058167" lon="9.803595"><ele>18.0</ele><time>2026-04-03T09:29:12.774Z</time></trkpt><trkpt lat="44.105755" lon="9.80363"><ele>18.0</ele><time>2026-04-03T09:29:14.773Z</time></trkpt><trkpt lat="44.1056967" lon="9.803665"><ele>18.0</ele><time>2026-04-03T09:29:16.774Z</time></trkpt><trkpt lat="44.1056267" lon="9.80367"><ele>18.0</ele><time>2026-04-03T09:29:20.774Z</time></trkpt><trkpt lat="44.1055467" lon="9.8037233"><ele>18.000000000000004</ele><time>2026-04-03T09:29:33.774Z</time></trkpt><trkpt lat="44.1054833" lon="9.8037533"><ele>18.0</ele><time>2026-04-03T09:29:35.774Z</time></trkpt><trkpt lat="44.1054183" lon="9.8037817"><ele>18.0</ele><time>2026-04-03T09:29:37.774Z</time></trkpt><trkpt lat="44.10535" lon="9.8038183"><ele>18.0</ele><time>2026-04-03T09:29:39.774Z</time></trkpt><trkpt lat="44.1052783" lon="9.8038683"><ele>18.0</ele><time>2026-04-03T09:29:41.773Z</time></trkpt><trkpt lat="44.1052067" lon="9.8039017"><ele>18.000000000000004</ele><time>2026-04-03T09:29:43.774Z</time></trkpt><trkpt lat="44.1051333" lon="9.803945"><ele>18.0</ele><time>2026-04-03T09:29:45.774Z</time></trkpt><trkpt lat="44.1050617" lon="9.803995"><ele>18.0</ele><time>2026-04-03T09:29:47.773Z</time></trkpt><trkpt lat="44.10499" lon="9.80404"><ele>18.0</ele><time>2026-04-03T09:29:49.774Z</time></trkpt><trkpt lat="44.10492" lon="9.8041"><ele>18.0</ele><time>2026-04-03T09:29:51.773Z</time></trkpt><trkpt lat="44.1048567" lon="9.8041617"><ele>18.0</ele><time>2026-04-03T09:29:53.774Z</time></trkpt><trkpt lat="44.1047967" lon="9.80423"><ele>18.0</ele><time>2026-04-03T09:29:55.774Z</time></trkpt><trkpt lat="44.1047383" lon="9.8042967"><ele>18.0</ele><time>2026-04-03T09:29:57.774Z</time></trkpt><trkpt lat="44.10469" lon="9.80436"><ele>18.333333333333332</ele><time>2026-04-03T09:30:00.774Z</time></trkpt><trkpt lat="44.1046233" lon="9.8044033"><ele>18.666666666666668</ele><time>2026-04-03T09:30:03.773Z</time></trkpt><trkpt lat="44.1045433" lon="9.8044367"><ele>19.0</ele><time>2026-04-03T09:30:06.773Z</time></trkpt><trkpt lat="44.1044733" lon="9.8044967"><ele>19.333333333333336</ele><time>2026-04-03T09:30:09.774Z</time></trkpt><trkpt lat="44.1044133" lon="9.8045783"><ele>19.666666666666668</ele><time>2026-04-03T09:30:12.773Z</time></trkpt><trkpt lat="44.1043683" lon="9.8046433"><ele>20.0</ele><time>2026-04-03T09:30:14.773Z</time></trkpt><trkpt lat="44.104315" lon="9.804725"><ele>20.0</ele><time>2026-04-03T09:30:16.774Z</time></trkpt><trkpt lat="44.10426" lon="9.80481"><ele>20.0</ele><time>2026-04-03T09:30:18.772Z</time></trkpt><trkpt lat="44.1042083" lon="9.8049017"><ele>20.0</ele><time>2026-04-03T09:30:20.773Z</time></trkpt><trkpt lat="44.1041583" lon="9.8049833"><ele>20.0</ele><time>2026-04-03T09:30:22.772Z</time></trkpt><trkpt lat="44.1041167" lon="9.8050767"><ele>20.0</ele><time>2026-04-03T09:30:24.772Z</time></trkpt><trkpt lat="44.1040667" lon="9.8051667"><ele>20.0</ele><time>2026-04-03T09:30:26.773Z</time></trkpt><trkpt lat="44.10401" lon="9.8052467"><ele>19.857142857142858</ele><time>2026-04-03T09:30:28.773Z</time></trkpt><trkpt lat="44.1039533" lon="9.8053217"><ele>19.714285714285715</ele><time>2026-04-03T09:30:30.773Z</time></trkpt><trkpt lat="44.1039117" lon="9.8054133"><ele>19.57142857142857</ele><time>2026-04-03T09:30:32.772Z</time></trkpt><trkpt lat="44.10388" lon="9.8055083"><ele>19.42857142857143</ele><time>2026-04-03T09:30:34.773Z</time></trkpt><trkpt lat="44.1038333" lon="9.805605"><ele>19.28571428571429</ele><time>2026-04-03T09:30:36.772Z</time></trkpt><trkpt lat="44.1037817" lon="9.80567"><ele>19.142857142857142</ele><time>2026-04-03T09:30:38.773Z</time></trkpt><trkpt lat="44.1037367" lon="9.805735"><ele>19.0</ele><time>2026-04-03T09:30:40.773Z</time></trkpt><trkpt lat="44.1036733" lon="9.8058133"><ele>19.0</ele><time>2026-04-03T09:30:43.772Z</time></trkpt><trkpt lat="44.1036217" lon="9.8058683"><ele>19.0</ele><time>2026-04-03T09:30:46.773Z</time></trkpt><trkpt lat="44.10358" lon="9.8059783"><ele>19.0</ele><time>2026-04-03T09:30:49.772Z</time></trkpt><trkpt lat="44.1035133" lon="9.8060583"><ele>19.0</ele><time>2026-04-03T09:30:51.772Z</time></trkpt><trkpt lat="44.10345" lon="9.80613"><ele>19.0</ele><time>2026-04-03T09:30:53.772Z</time></trkpt><trkpt lat="44.10339" lon="9.8061967"><ele>19.0</ele><time>2026-04-03T09:30:55.772Z</time></trkpt><trkpt lat="44.10333" lon="9.806275"><ele>18.666666666666664</ele><time>2026-04-03T09:30:57.773Z</time></trkpt><trkpt lat="44.10327" lon="9.806355"><ele>18.333333333333332</ele><time>2026-04-03T09:30:59.773Z</time></trkpt><trkpt lat="44.1032117" lon="9.806425"><ele>18.0</ele><time>2026-04-03T09:31:01.773Z</time></trkpt><trkpt lat="44.1031617" lon="9.8065017"><ele>17.666666666666668</ele><time>2026-04-03T09:31:03.773Z</time></trkpt><trkpt lat="44.1031067" lon="9.8065767"><ele>17.333333333333336</ele><time>2026-04-03T09:31:05.772Z</time></trkpt><trkpt lat="44.1030533" lon="9.80666"><ele>17.0</ele><time>2026-04-03T09:31:07.773Z</time></trkpt><trkpt lat="44.10299" lon="9.80674"><ele>17.0</ele><time>2026-04-03T09:31:09.773Z</time></trkpt><trkpt lat="44.1029267" lon="9.806815"><ele>17.0</ele><time>2026-04-03T09:31:11.773Z</time></trkpt><trkpt lat="44.10285" lon="9.8068817"><ele>17.0</ele><time>2026-04-03T09:31:13.773Z</time></trkpt><trkpt lat="44.1027817" lon="9.8069417"><ele>17.0</ele><time>2026-04-03T09:31:15.773Z</time></trkpt><trkpt lat="44.10271" lon="9.807005"><ele>17.0</ele><time>2026-04-03T09:31:17.773Z</time></trkpt><trkpt lat="44.1026367" lon="9.807065"><ele>17.0</ele><time>2026-04-03T09:31:19.773Z</time></trkpt><trkpt lat="44.1025617" lon="9.8071183"><ele>15.333333333333334</ele><time>2026-04-03T09:31:21.773Z</time></trkpt><trkpt lat="44.102485" lon="9.80717"><ele>13.666666666666668</ele><time>2026-04-03T09:31:23.772Z</time></trkpt><trkpt lat="44.1024033" lon="9.8072067"><ele>12.0</ele><time>2026-04-03T09:31:25.772Z</time></trkpt><trkpt lat="44.1023233" lon="9.8072383"><ele>10.333333333333334</ele><time>2026-04-03T09:31:27.773Z</time></trkpt><trkpt lat="44.1022433" lon="9.8072767"><ele>8.666666666666668</ele><time>2026-04-03T09:31:29.773Z</time></trkpt><trkpt lat="44.1021583" lon="9.807305"><ele>7.0</ele><time>2026-04-03T09:31:31.773Z</time></trkpt><trkpt lat="44.102075" lon="9.8073267"><ele>7.000000000000001</ele><time>2026-04-03T09:31:33.773Z</time></trkpt><trkpt lat="44.101995" lon="9.80734"><ele>7.0</ele><time>2026-04-03T09:31:35.773Z</time></trkpt><trkpt lat="44.1019117" lon="9.80735"><ele>7.0</ele><time>2026-04-03T09:31:37.773Z</time></trkpt><trkpt lat="44.1018267" lon="9.80735"><ele>7.0</ele><time>2026-04-03T09:31:39.772Z</time></trkpt><trkpt lat="44.1017417" lon="9.8073467"><ele>7.000000000000001</ele><time>2026-04-03T09:31:41.773Z</time></trkpt><trkpt lat="44.1016633" lon="9.80734"><ele>7.0</ele><time>2026-04-03T09:31:43.772Z</time></trkpt><trkpt lat="44.1015783" lon="9.8073383"><ele>6.833333333333334</ele><time>2026-04-03T09:31:45.773Z</time></trkpt><trkpt lat="44.1014983" lon="9.8073333"><ele>6.666666666666667</ele><time>2026-04-03T09:31:47.773Z</time></trkpt><trkpt lat="44.10142" lon="9.80732"><ele>6.5</ele><time>2026-04-03T09:31:49.772Z</time></trkpt><trkpt lat="44.10134" lon="9.807315"><ele>6.333333333333334</ele><time>2026-04-03T09:31:51.773Z</time></trkpt><trkpt lat="44.10126" lon="9.80732"><ele>6.166666666666667</ele><time>2026-04-03T09:31:53.773Z</time></trkpt><trkpt lat="44.1011767" lon="9.8073383"><ele>6.0</ele><time>2026-04-03T09:31:55.773Z</time></trkpt><trkpt lat="44.101095" lon="9.8073533"><ele>6.0</ele><time>2026-04-03T09:31:57.773Z</time></trkpt><trkpt lat="44.10102" lon="9.8073633"><ele>6.0</ele><time>2026-04-03T09:31:59.772Z</time></trkpt><trkpt lat="44.100935" lon="9.8073683"><ele>6.0</ele><time>2026-04-03T09:32:02.773Z</time></trkpt><trkpt lat="44.10101" lon="9.8073817"><ele>6.0</ele><time>2026-04-03T09:32:11.772Z</time></trkpt><trkpt lat="44.1010783" lon="9.80738"><ele>6.0</ele><time>2026-04-03T09:32:13.773Z</time></trkpt><trkpt lat="44.1011433" lon="9.8073767"><ele>6.0</ele><time>2026-04-03T09:32:15.773Z</time></trkpt><trkpt lat="44.1012283" lon="9.8073617"><ele>6.0</ele><time>2026-04-03T09:32:18.772Z</time></trkpt><trkpt lat="44.1013067" lon="9.807335"><ele>6.0</ele><time>2026-04-03T09:32:21.773Z</time></trkpt><trkpt lat="44.10129" lon="9.8074233"><ele>6.0</ele><time>2026-04-03T09:32:30.773Z</time></trkpt><trkpt lat="44.101245" lon="9.8074867"><ele>6.0</ele><time>2026-04-03T09:32:33.773Z</time></trkpt><trkpt lat="44.1011833" lon="9.8075633"><ele>6.0</ele><time>2026-04-03T09:32:36.773Z</time></trkpt><trkpt lat="44.101125" lon="9.8076217"><ele>6.0</ele><time>2026-04-03T09:34:07.83Z</time></trkpt><trkpt lat="44.1005188" lon="9.807886"><ele>19.0</ele><time>2026-04-03T09:34:08.831Z</time></trkpt><trkpt lat="44.0995806" lon="9.8085913"><ele>19.0</ele><time>2026-04-03T09:34:09.83Z</time></trkpt><trkpt lat="44.0992562" lon="9.8089937"><ele>19.0</ele><time>2026-04-03T09:34:10.831Z</time></trkpt><trkpt lat="44.0990748" lon="9.8096428"><ele>17.166666666666664</ele><time>2026-04-03T09:34:12.83Z</time></trkpt><trkpt lat="44.0990423" lon="9.8097594"><ele>15.333333333333332</ele><time>2026-04-03T09:34:13.831Z</time></trkpt><trkpt lat="44.0990148" lon="9.8098435"><ele>13.5</ele><time>2026-04-03T09:34:14.83Z</time></trkpt><trkpt lat="44.0989693" lon="9.8099679"><ele>11.666666666666666</ele><time>2026-04-03T09:34:16.831Z</time></trkpt><trkpt lat="44.098912" lon="9.8100273"><ele>9.833333333333332</ele><time>2026-04-03T09:34:18.831Z</time></trkpt><trkpt lat="44.0988432" lon="9.809996"><ele>8.0</ele><time>2026-04-03T09:34:22.83Z</time></trkpt><trkpt lat="44.0987787" lon="9.8100917"><ele>7.666666666666666</ele><time>2026-04-03T09:34:27.774Z</time></trkpt><trkpt lat="44.0987293" lon="9.8101586"><ele>7.333333333333333</ele><time>2026-04-03T09:34:29.775Z</time></trkpt><trkpt lat="44.0986812" lon="9.8102365"><ele>7.0</ele><time>2026-04-03T09:34:31.774Z</time></trkpt><trkpt lat="44.0986148" lon="9.8103052"><ele>6.666666666666666</ele><time>2026-04-03T09:34:33.774Z</time></trkpt><trkpt lat="44.0985731" lon="9.8103792"><ele>6.333333333333333</ele><time>2026-04-03T09:34:35.774Z</time></trkpt><trkpt lat="44.0985249" lon="9.8104883"><ele>6.0</ele><time>2026-04-03T09:34:38.774Z</time></trkpt><trkpt lat="44.0984567" lon="9.8105665"><ele>5.999999999999999</ele><time>2026-04-03T09:34:41.774Z</time></trkpt><trkpt lat="44.0983852" lon="9.8106544"><ele>6.0</ele><time>2026-04-03T09:34:44.774Z</time></trkpt><trkpt lat="44.0983412" lon="9.8107291"><ele>6.0</ele><time>2026-04-03T09:34:46.775Z</time></trkpt><trkpt lat="44.0983009" lon="9.8107991"><ele>6.0</ele><time>2026-04-03T09:34:48.775Z</time></trkpt><trkpt lat="44.0982616" lon="9.8108723"><ele>6.0</ele><time>2026-04-03T09:34:50.775Z</time></trkpt><trkpt lat="44.0982189" lon="9.8109506"><ele>5.999999999999999</ele><time>2026-04-03T09:34:52.774Z</time></trkpt><trkpt lat="44.0981783" lon="9.8110279"><ele>6.0</ele><time>2026-04-03T09:34:54.774Z</time></trkpt><trkpt lat="44.0981375" lon="9.8111008"><ele>7.333333333333334</ele><time>2026-04-03T09:34:56.775Z</time></trkpt><trkpt lat="44.0980719" lon="9.8111977"><ele>8.666666666666668</ele><time>2026-04-03T09:34:59.774Z</time></trkpt><trkpt lat="44.0980217" lon="9.8112663"><ele>10.0</ele><time>2026-04-03T09:35:01.774Z</time></trkpt><trkpt lat="44.0979805" lon="9.8113359"><ele>11.333333333333334</ele><time>2026-04-03T09:35:03.775Z</time></trkpt><trkpt lat="44.0979348" lon="9.8114015"><ele>12.666666666666668</ele><time>2026-04-03T09:35:05.774Z</time></trkpt><trkpt lat="44.0978767" lon="9.8114933"><ele>14.0</ele><time>2026-04-03T09:35:08.774Z</time></trkpt><trkpt lat="44.097825" lon="9.811585"><ele>14.000000000000002</ele><time>2026-04-03T09:35:11.775Z</time></trkpt><trkpt lat="44.09776" lon="9.81167"><ele>14.0</ele><time>2026-04-03T09:35:14.774Z</time></trkpt><trkpt lat="44.0977067" lon="9.8117683"><ele>14.0</ele><time>2026-04-03T09:35:17.774Z</time></trkpt><trkpt lat="44.0976567" lon="9.8118583"><ele>14.0</ele><time>2026-04-03T09:35:20.774Z</time></trkpt><trkpt lat="44.0976017" lon="9.811945"><ele>14.000000000000002</ele><time>2026-04-03T09:35:23.774Z</time></trkpt><trkpt lat="44.0975583" lon="9.8120417"><ele>14.0</ele><time>2026-04-03T09:35:26.775Z</time></trkpt><trkpt lat="44.0975133" lon="9.81214"><ele>13.666666666666668</ele><time>2026-04-03T09:35:29.774Z</time></trkpt><trkpt lat="44.0974633" lon="9.8122517"><ele>13.333333333333334</ele><time>2026-04-03T09:35:32.774Z</time></trkpt><trkpt lat="44.0974117" lon="9.8123183"><ele>13.0</ele><time>2026-04-03T09:35:34.774Z</time></trkpt><trkpt lat="44.097365" lon="9.8123817"><ele>12.666666666666668</ele><time>2026-04-03T09:35:36.774Z</time></trkpt><trkpt lat="44.0973083" lon="9.8124767"><ele>12.333333333333334</ele><time>2026-04-03T09:35:39.774Z</time></trkpt><trkpt lat="44.09725" lon="9.8125517"><ele>12.0</ele><time>2026-04-03T09:35:42.775Z</time></trkpt><trkpt lat="44.0971733" lon="9.8125367"><ele>14.166666666666668</ele><time>2026-04-03T09:35:46.775Z</time></trkpt><trkpt lat="44.0970917" lon="9.81251"><ele>16.333333333333336</ele><time>2026-04-03T09:35:50.775Z</time></trkpt><trkpt lat="44.097025" lon="9.81246"><ele>18.5</ele><time>2026-04-03T09:35:53.775Z</time></trkpt><trkpt lat="44.096955" lon="9.8123817"><ele>20.666666666666668</ele><time>2026-04-03T09:35:56.774Z</time></trkpt><trkpt lat="44.0968933" lon="9.8123217"><ele>22.833333333333336</ele><time>2026-04-03T09:35:58.775Z</time></trkpt><trkpt lat="44.0968267" lon="9.8122433"><ele>25.0</ele><time>2026-04-03T09:36:01.775Z</time></trkpt><trkpt lat="44.096775" lon="9.8121883"><ele>25.000000000000004</ele><time>2026-04-03T09:36:04.774Z</time></trkpt><trkpt lat="44.0967083" lon="9.8121233"><ele>25.0</ele><time>2026-04-03T09:36:08.775Z</time></trkpt><trkpt lat="44.096655" lon="9.8120617"><ele>25.0</ele><time>2026-04-03T09:36:11.775Z</time></trkpt><trkpt lat="44.0965867" lon="9.8120133"><ele>25.0</ele><time>2026-04-03T09:36:15.775Z</time></trkpt><trkpt lat="44.0965317" lon="9.8119567"><ele>25.0</ele><time>2026-04-03T09:36:20.775Z</time></trkpt><trkpt lat="44.0964717" lon="9.8119283"><ele>25.000000000000004</ele><time>2026-04-03T09:36:23.775Z</time></trkpt><trkpt lat="44.096415" lon="9.8118733"><ele>25.0</ele><time>2026-04-03T09:36:27.775Z</time></trkpt><trkpt lat="44.096355" lon="9.8118333"><ele>26.714285714285715</ele><time>2026-04-03T09:36:32.775Z</time></trkpt><trkpt lat="44.0962967" lon="9.8117617"><ele>28.42857142857143</ele><time>2026-04-03T09:36:36.775Z</time></trkpt><trkpt lat="44.09626" lon="9.81169"><ele>30.142857142857146</ele><time>2026-04-03T09:36:42.774Z</time></trkpt><trkpt lat="44.0961983" lon="9.8116333"><ele>31.857142857142858</ele><time>2026-04-03T09:36:47.775Z</time></trkpt><trkpt lat="44.096145" lon="9.81158"><ele>33.57142857142857</ele><time>2026-04-03T09:36:52.775Z</time></trkpt><trkpt lat="44.096065" lon="9.81153"><ele>35.285714285714285</ele><time>2026-04-03T09:36:56.774Z</time></trkpt><trkpt lat="44.0960017" lon="9.8114967"><ele>37.0</ele><time>2026-04-03T09:36:59.774Z</time></trkpt><trkpt lat="44.0959333" lon="9.811435"><ele>37.0</ele><time>2026-04-03T09:37:03.775Z</time></trkpt><trkpt lat="44.0958667" lon="9.8113883"><ele>37.0</ele><time>2026-04-03T09:37:08.775Z</time></trkpt><trkpt lat="44.0957983" lon="9.8113533"><ele>37.0</ele><time>2026-04-03T09:37:13.774Z</time></trkpt><trkpt lat="44.09574" lon="9.81132"><ele>37.0</ele><time>2026-04-03T09:37:18.775Z</time></trkpt><trkpt lat="44.0956583" lon="9.811295"><ele>37.0</ele><time>2026-04-03T09:37:23.775Z</time></trkpt><trkpt lat="44.095595" lon="9.8112817"><ele>37.0</ele><time>2026-04-03T09:37:26.775Z</time></trkpt><trkpt lat="44.0955383" lon="9.8112067"><ele>37.0</ele><time>2026-04-03T09:37:30.775Z</time></trkpt><trkpt lat="44.0954617" lon="9.8111567"><ele>37.85714285714286</ele><time>2026-04-03T09:37:34.774Z</time></trkpt><trkpt lat="44.09541" lon="9.811105"><ele>38.714285714285715</ele><time>2026-04-03T09:37:39.774Z</time></trkpt><trkpt lat="44.0953883" lon="9.8110217"><ele>39.57142857142857</ele><time>2026-04-03T09:37:47.775Z</time></trkpt><trkpt lat="44.0953417" lon="9.81095"><ele>40.42857142857143</ele><time>2026-04-03T09:37:50.775Z</time></trkpt><trkpt lat="44.09532" lon="9.8108583"><ele>41.285714285714285</ele><time>2026-04-03T09:37:54.775Z</time></trkpt><trkpt lat="44.0952717" lon="9.8107983"><ele>42.142857142857146</ele><time>2026-04-03T09:37:57.774Z</time></trkpt><trkpt lat="44.09522" lon="9.8107233"><ele>43.0</ele><time>2026-04-03T09:38:01.774Z</time></trkpt><trkpt lat="44.0951517" lon="9.810685"><ele>43.00000000000001</ele><time>2026-04-03T09:38:04.774Z</time></trkpt><trkpt lat="44.0950833" lon="9.8106283"><ele>43.0</ele><time>2026-04-03T09:38:07.775Z</time></trkpt><trkpt lat="44.0950083" lon="9.81057"><ele>43.0</ele><time>2026-04-03T09:38:11.774Z</time></trkpt><trkpt lat="44.0949333" lon="9.8105333"><ele>43.0</ele><time>2026-04-03T09:38:15.775Z</time></trkpt><trkpt lat="44.0948683" lon="9.810505"><ele>43.0</ele><time>2026-04-03T09:38:19.774Z</time></trkpt><trkpt lat="44.094805" lon="9.8104717"><ele>43.00000000000001</ele><time>2026-04-03T09:38:23.775Z</time></trkpt><trkpt lat="44.0947583" lon="9.810405"><ele>43.0</ele><time>2026-04-03T09:38:28.775Z</time></trkpt><trkpt lat="44.0946917" lon="9.81037"><ele>45.833333333333336</ele><time>2026-04-03T09:38:32.774Z</time></trkpt><trkpt lat="44.0946167" lon="9.810345"><ele>48.66666666666667</ele><time>2026-04-03T09:38:37.774Z</time></trkpt><trkpt lat="44.0945567" lon="9.810295"><ele>51.5</ele><time>2026-04-03T09:38:42.775Z</time></trkpt><trkpt lat="44.094485" lon="9.8102717"><ele>54.333333333333336</ele><time>2026-04-03T09:38:46.775Z</time></trkpt><trkpt lat="44.0944083" lon="9.81027"><ele>57.166666666666664</ele><time>2026-04-03T09:38:50.775Z</time></trkpt><trkpt lat="44.09433" lon="9.8102083"><ele>60.0</ele><time>2026-04-03T09:40:11.773Z</time></trkpt><trkpt lat="44.0942633" lon="9.8102267"><ele>60.0</ele><time>2026-04-03T09:40:15.773Z</time></trkpt><trkpt lat="44.0941983" lon="9.8102167"><ele>60.0</ele><time>2026-04-03T09:40:22.774Z</time></trkpt><trkpt lat="44.09414" lon="9.8101767"><ele>60.0</ele><time>2026-04-03T09:40:27.774Z</time></trkpt><trkpt lat="44.09407" lon="9.8101417"><ele>60.0</ele><time>2026-04-03T09:40:33.774Z</time></trkpt><trkpt lat="44.0940017" lon="9.8101067"><ele>60.0</ele><time>2026-04-03T09:40:37.774Z</time></trkpt><trkpt lat="44.0939533" lon="9.81003"><ele>60.0</ele><time>2026-04-03T09:40:43.773Z</time></trkpt><trkpt lat="44.0939167" lon="9.8099517"><ele>60.0</ele><time>2026-04-03T09:40:48.774Z</time></trkpt><trkpt lat="44.0938867" lon="9.8098717"><ele>62.28571428571429</ele><time>2026-04-03T09:40:53.773Z</time></trkpt><trkpt lat="44.0938267" lon="9.809805"><ele>64.57142857142857</ele><time>2026-04-03T09:40:58.773Z</time></trkpt><trkpt lat="44.0937683" lon="9.8097483"><ele>66.85714285714286</ele><time>2026-04-03T09:41:03.773Z</time></trkpt><trkpt lat="44.093715" lon="9.8096983"><ele>69.14285714285714</ele><time>2026-04-03T09:41:07.774Z</time></trkpt><trkpt lat="44.0936583" lon="9.80964"><ele>71.42857142857143</ele><time>2026-04-03T09:41:12.773Z</time></trkpt><trkpt lat="44.0936033" lon="9.8095883"><ele>73.71428571428571</ele><time>2026-04-03T09:41:17.773Z</time></trkpt><trkpt lat="44.0935267" lon="9.8095517"><ele>76.0</ele><time>2026-04-03T09:41:22.774Z</time></trkpt><trkpt lat="44.0934567" lon="9.80952"><ele>76.0</ele><time>2026-04-03T09:41:26.774Z</time></trkpt><trkpt lat="44.0933933" lon="9.8094817"><ele>76.0</ele><time>2026-04-03T09:41:30.773Z</time></trkpt><trkpt lat="44.0933367" lon="9.8094367"><ele>76.0</ele><time>2026-04-03T09:41:34.774Z</time></trkpt><trkpt lat="44.0932733" lon="9.8093967"><ele>76.0</ele><time>2026-04-03T09:41:38.773Z</time></trkpt><trkpt lat="44.0932167" lon="9.8093417"><ele>76.0</ele><time>2026-04-03T09:41:42.773Z</time></trkpt><trkpt lat="44.0931533" lon="9.8092867"><ele>76.0</ele><time>2026-04-03T09:41:47.774Z</time></trkpt><trkpt lat="44.09309" lon="9.8092433"><ele>76.0</ele><time>2026-04-03T09:41:52.774Z</time></trkpt><trkpt lat="44.09302" lon="9.809205"><ele>77.57142857142857</ele><time>2026-04-03T09:41:57.773Z</time></trkpt><trkpt lat="44.0929717" lon="9.8091433"><ele>79.14285714285715</ele><time>2026-04-03T09:42:03.774Z</time></trkpt><trkpt lat="44.09291" lon="9.8091033"><ele>80.71428571428572</ele><time>2026-04-03T09:42:08.773Z</time></trkpt><trkpt lat="44.0928483" lon="9.8090817"><ele>82.28571428571428</ele><time>2026-04-03T09:42:13.773Z</time></trkpt><trkpt lat="44.0928" lon="9.8090167"><ele>83.85714285714286</ele><time>2026-04-03T09:42:21.773Z</time></trkpt><trkpt lat="44.0927533" lon="9.8089367"><ele>85.42857142857143</ele><time>2026-04-03T09:42:27.774Z</time></trkpt><trkpt lat="44.0927033" lon="9.8088767"><ele>87.0</ele><time>2026-04-03T09:42:34.773Z</time></trkpt><trkpt lat="44.0926483" lon="9.8088117"><ele>87.0</ele><time>2026-04-03T09:42:40.773Z</time></trkpt><trkpt lat="44.0925867" lon="9.808755"><ele>87.0</ele><time>2026-04-03T09:42:45.774Z</time></trkpt><trkpt lat="44.0925267" lon="9.8087117"><ele>87.0</ele><time>2026-04-03T09:42:50.773Z</time></trkpt><trkpt lat="44.0924683" lon="9.80866"><ele>87.0</ele><time>2026-04-03T09:42:56.773Z</time></trkpt><trkpt lat="44.0924133" lon="9.8085883"><ele>87.0</ele><time>2026-04-03T09:43:03.773Z</time></trkpt><trkpt lat="44.092365" lon="9.80851"><ele>87.0</ele><time>2026-04-03T09:43:08.773Z</time></trkpt><trkpt lat="44.0923233" lon="9.8084183"><ele>87.0</ele><time>2026-04-03T09:43:13.773Z</time></trkpt><trkpt lat="44.092295" lon="9.8083383"><ele>90.0</ele><time>2026-04-03T09:43:18.774Z</time></trkpt><trkpt lat="44.0922717" lon="9.8082417"><ele>93.0</ele><time>2026-04-03T09:43:24.773Z</time></trkpt><trkpt lat="44.0922417" lon="9.8081433"><ele>96.0</ele><time>2026-04-03T09:43:29.773Z</time></trkpt><trkpt lat="44.0921933" lon="9.8080733"><ele>99.0</ele><time>2026-04-03T09:43:34.773Z</time></trkpt><trkpt lat="44.0921433" lon="9.8079933"><ele>102.0</ele><time>2026-04-03T09:43:39.774Z</time></trkpt><trkpt lat="44.0920833" lon="9.8079617"><ele>105.0</ele><time>2026-04-03T09:43:43.773Z</time></trkpt><trkpt lat="44.0920483" lon="9.8078867"><ele>108.0</ele><time>2026-04-03T09:43:48.773Z</time></trkpt><trkpt lat="44.0920417" lon="9.8077967"><ele>108.0</ele><time>2026-04-03T09:43:59.773Z</time></trkpt><trkpt lat="44.0920667" lon="9.8077083"><ele>108.0</ele><time>2026-04-03T09:44:03.774Z</time></trkpt><trkpt lat="44.092085" lon="9.8076217"><ele>108.0</ele><time>2026-04-03T09:44:06.773Z</time></trkpt><trkpt lat="44.0921083" lon="9.80752"><ele>108.0</ele><time>2026-04-03T09:44:09.773Z</time></trkpt><trkpt lat="44.0921283" lon="9.807415"><ele>108.0</ele><time>2026-04-03T09:44:13.773Z</time></trkpt><trkpt lat="44.0921383" lon="9.80732"><ele>108.0</ele><time>2026-04-03T09:44:25.773Z</time></trkpt><trkpt lat="44.0922017" lon="9.8072767"><ele>108.0</ele><time>2026-04-03T09:44:34.773Z</time></trkpt><trkpt lat="44.0922533" lon="9.8072217"><ele>107.57142857142857</ele><time>2026-04-03T09:44:41.772Z</time></trkpt><trkpt lat="44.0922533" lon="9.807125"><ele>107.14285714285714</ele><time>2026-04-03T09:44:48.772Z</time></trkpt><trkpt lat="44.0921983" lon="9.8071783"><ele>106.71428571428572</ele><time>2026-04-03T09:45:27.773Z</time></trkpt><trkpt lat="44.09216" lon="9.8072533"><ele>106.28571428571428</ele><time>2026-04-03T09:45:34.773Z</time></trkpt><trkpt lat="44.0921433" lon="9.8073433"><ele>105.85714285714286</ele><time>2026-04-03T09:45:37.773Z</time></trkpt><trkpt lat="44.09211" lon="9.8074233"><ele>105.42857142857143</ele><time>2026-04-03T09:45:40.773Z</time></trkpt><trkpt lat="44.0920817" lon="9.807505"><ele>105.0</ele><time>2026-04-03T09:45:43.772Z</time></trkpt><trkpt lat="44.0920417" lon="9.80759"><ele>105.42857142857143</ele><time>2026-04-03T09:45:46.772Z</time></trkpt><trkpt lat="44.0920033" lon="9.8076683"><ele>105.85714285714286</ele><time>2026-04-03T09:45:49.773Z</time></trkpt><trkpt lat="44.09196" lon="9.8077633"><ele>106.28571428571428</ele><time>2026-04-03T09:45:52.772Z</time></trkpt><trkpt lat="44.091915" lon="9.8078617"><ele>106.71428571428572</ele><time>2026-04-03T09:45:56.773Z</time></trkpt><trkpt lat="44.0919033" lon="9.80795"><ele>107.14285714285714</ele><time>2026-04-03T09:46:01.773Z</time></trkpt><trkpt lat="44.09189" lon="9.8080483"><ele>107.57142857142857</ele><time>2026-04-03T09:46:08.773Z</time></trkpt><trkpt lat="44.0918833" lon="9.8081467"><ele>108.0</ele><time>2026-04-03T09:46:13.772Z</time></trkpt><trkpt lat="44.0918933" lon="9.8082467"><ele>108.0</ele><time>2026-04-03T09:46:17.773Z</time></trkpt><trkpt lat="44.0919" lon="9.8083517"><ele>108.0</ele><time>2026-04-03T09:46:20.773Z</time></trkpt><trkpt lat="44.091915" lon="9.808445"><ele>108.0</ele><time>2026-04-03T09:46:24.773Z</time></trkpt><trkpt lat="44.0919567" lon="9.8085267"><ele>108.0</ele><time>2026-04-03T09:46:28.772Z</time></trkpt><trkpt lat="44.0919967" lon="9.8085967"><ele>108.0</ele><time>2026-04-03T09:46:34.773Z</time></trkpt><trkpt lat="44.0920267" lon="9.808675"><ele>108.0</ele><time>2026-04-03T09:46:40.772Z</time></trkpt><trkpt lat="44.0920617" lon="9.8087533"><ele>108.0</ele><time>2026-04-03T09:46:44.772Z</time></trkpt><trkpt lat="44.092115" lon="9.80881"><ele>110.28571428571428</ele><time>2026-04-03T09:46:50.772Z</time></trkpt><trkpt lat="44.09215" lon="9.8088967"><ele>112.57142857142857</ele><time>2026-04-03T09:46:55.772Z</time></trkpt><trkpt lat="44.09219" lon="9.80899"><ele>114.85714285714286</ele><time>2026-04-03T09:47:00.772Z</time></trkpt><trkpt lat="44.092215" lon="9.8090967"><ele>117.14285714285714</ele><time>2026-04-03T09:47:04.773Z</time></trkpt><trkpt lat="44.092245" lon="9.80918"><ele>119.42857142857144</ele><time>2026-04-03T09:47:08.772Z</time></trkpt><trkpt lat="44.0922883" lon="9.8092733"><ele>121.71428571428572</ele><time>2026-04-03T09:47:12.773Z</time></trkpt><trkpt lat="44.0923133" lon="9.8093583"><ele>124.0</ele><time>2026-04-03T09:47:15.773Z</time></trkpt><trkpt lat="44.0923483" lon="9.8094383"><ele>125.71428571428572</ele><time>2026-04-03T09:47:19.773Z</time></trkpt><trkpt lat="44.092395" lon="9.8094983"><ele>127.42857142857144</ele><time>2026-04-03T09:47:23.772Z</time></trkpt><trkpt lat="44.0924367" lon="9.8095767"><ele>129.14285714285714</ele><time>2026-04-03T09:47:27.773Z</time></trkpt><trkpt lat="44.092475" lon="9.80966"><ele>130.85714285714286</ele><time>2026-04-03T09:47:30.773Z</time></trkpt><trkpt lat="44.0925167" lon="9.8097383"><ele>132.57142857142856</ele><time>2026-04-03T09:47:33.773Z</time></trkpt><trkpt lat="44.0925717" lon="9.80982"><ele>134.28571428571428</ele><time>2026-04-03T09:47:37.773Z</time></trkpt><trkpt lat="44.0926233" lon="9.8099033"><ele>136.0</ele><time>2026-04-03T09:47:41.772Z</time></trkpt><trkpt lat="44.092675" lon="9.8099717"><ele>134.16666666666669</ele><time>2026-04-03T09:47:45.772Z</time></trkpt><trkpt lat="44.0927233" lon="9.8100567"><ele>132.33333333333334</ele><time>2026-04-03T09:47:49.773Z</time></trkpt><trkpt lat="44.0927933" lon="9.8101133"><ele>130.5</ele><time>2026-04-03T09:47:54.772Z</time></trkpt><trkpt lat="44.0928733" lon="9.8101583"><ele>128.66666666666666</ele><time>2026-04-03T09:47:59.772Z</time></trkpt><trkpt lat="44.09292" lon="9.8102183"><ele>126.83333333333333</ele><time>2026-04-03T09:48:01.772Z</time></trkpt><trkpt lat="44.092995" lon="9.810315"><ele>125.0</ele><time>2026-04-03T09:48:04.773Z</time></trkpt><trkpt lat="44.0930583" lon="9.8103783"><ele>125.0</ele><time>2026-04-03T09:48:06.772Z</time></trkpt><trkpt lat="44.093135" lon="9.8104683"><ele>125.0</ele><time>2026-04-03T09:48:08.773Z</time></trkpt><trkpt lat="44.0932117" lon="9.81057"><ele>125.0</ele><time>2026-04-03T09:48:10.772Z</time></trkpt><trkpt lat="44.0932617" lon="9.81069"><ele>125.0</ele><time>2026-04-03T09:48:12.772Z</time></trkpt><trkpt lat="44.09331" lon="9.81083"><ele>125.0</ele><time>2026-04-03T09:48:14.773Z</time></trkpt><trkpt lat="44.093335" lon="9.8109767"><ele>120.8</ele><time>2026-04-03T09:48:16.772Z</time></trkpt><trkpt lat="44.0933667" lon="9.8111183"><ele>116.6</ele><time>2026-04-03T09:48:18.772Z</time></trkpt><trkpt lat="44.0933967" lon="9.8112567"><ele>112.4</ele><time>2026-04-03T09:48:20.773Z</time></trkpt><trkpt lat="44.0934317" lon="9.811405"><ele>108.2</ele><time>2026-04-03T09:48:22.772Z</time></trkpt><trkpt lat="44.0934533" lon="9.8115433"><ele>104.0</ele><time>2026-04-03T09:48:24.772Z</time></trkpt><trkpt lat="44.0934817" lon="9.8116567"><ele>103.99999999999999</ele><time>2026-04-03T09:48:26.773Z</time></trkpt><trkpt lat="44.0935083" lon="9.811765"><ele>104.0</ele><time>2026-04-03T09:48:28.773Z</time></trkpt><trkpt lat="44.0935383" lon="9.8118717"><ele>104.0</ele><time>2026-04-03T09:48:30.772Z</time></trkpt><trkpt lat="44.0935783" lon="9.8119767"><ele>104.0</ele><time>2026-04-03T09:48:33.773Z</time></trkpt><trkpt lat="44.0935933" lon="9.8120633"><ele>103.99999999999999</ele><time>2026-04-03T09:48:36.772Z</time></trkpt><trkpt lat="44.0935933" lon="9.8121767"><ele>104.0</ele><time>2026-04-03T09:48:39.772Z</time></trkpt><trkpt lat="44.093595" lon="9.812305"><ele>104.33333333333333</ele><time>2026-04-03T09:48:42.773Z</time></trkpt><trkpt lat="44.0935717" lon="9.812435"><ele>104.66666666666666</ele><time>2026-04-03T09:48:45.773Z</time></trkpt><trkpt lat="44.0935483" lon="9.8125167"><ele>105.0</ele><time>2026-04-03T09:48:47.773Z</time></trkpt><trkpt lat="44.0935067" lon="9.8126267"><ele>105.33333333333334</ele><time>2026-04-03T09:48:50.773Z</time></trkpt><trkpt lat="44.0934583" lon="9.8127233"><ele>105.66666666666667</ele><time>2026-04-03T09:48:53.772Z</time></trkpt><trkpt lat="44.0933983" lon="9.812805"><ele>106.0</ele><time>2026-04-03T09:48:56.773Z</time></trkpt><trkpt lat="44.093335" lon="9.8128583"><ele>106.00000000000001</ele><time>2026-04-03T09:48:58.771Z</time></trkpt><trkpt lat="44.09328" lon="9.8129067"><ele>106.0</ele><time>2026-04-03T09:49:00.772Z</time></trkpt><trkpt lat="44.0932217" lon="9.8129533"><ele>106.0</ele><time>2026-04-03T09:49:02.772Z</time></trkpt><trkpt lat="44.0931467" lon="9.8130183"><ele>106.0</ele><time>2026-04-03T09:49:05.772Z</time></trkpt><trkpt lat="44.0930783" lon="9.8130933"><ele>106.00000000000001</ele><time>2026-04-03T09:49:08.771Z</time></trkpt><trkpt lat="44.09301" lon="9.8131783"><ele>106.0</ele><time>2026-04-03T09:49:11.772Z</time></trkpt><trkpt lat="44.092955" lon="9.8132267"><ele>105.66666666666667</ele><time>2026-04-03T09:49:13.771Z</time></trkpt><trkpt lat="44.0928817" lon="9.813305"><ele>105.33333333333334</ele><time>2026-04-03T09:49:16.772Z</time></trkpt><trkpt lat="44.092815" lon="9.8133767"><ele>105.0</ele><time>2026-04-03T09:49:19.772Z</time></trkpt><trkpt lat="44.09275" lon="9.8134233"><ele>104.66666666666666</ele><time>2026-04-03T09:49:22.772Z</time></trkpt><trkpt lat="44.0926717" lon="9.813395"><ele>104.33333333333333</ele><time>2026-04-03T09:49:25.771Z</time></trkpt><trkpt lat="44.0926883" lon="9.8133033"><ele>104.0</ele><time>2026-04-03T09:49:31.771Z</time></trkpt><trkpt lat="44.0926767" lon="9.813215"><ele>104.0</ele><time>2026-04-03T09:49:35.772Z</time></trkpt><trkpt lat="44.0926167" lon="9.8132483"><ele>104.0</ele><time>2026-04-03T09:49:40.771Z</time></trkpt><trkpt lat="44.0925933" lon="9.81316"><ele>104.0</ele><time>2026-04-03T09:49:54.771Z</time></trkpt><trkpt lat="44.0925483" lon="9.8130917"><ele>104.0</ele><time>2026-04-03T09:49:59.772Z</time></trkpt><trkpt lat="44.092575" lon="9.813185"><ele>104.0</ele><time>2026-04-03T09:50:06.772Z</time></trkpt><trkpt lat="44.09256" lon="9.8132867"><ele>104.0</ele><time>2026-04-03T09:50:09.771Z</time></trkpt><trkpt lat="44.0926117" lon="9.81337"><ele>104.0</ele><time>2026-04-03T09:50:12.771Z</time></trkpt><trkpt lat="44.0926833" lon="9.81339"><ele>104.0</ele><time>2026-04-03T09:50:15.772Z</time></trkpt><trkpt lat="44.092695" lon="9.8132867"><ele>104.0</ele><time>2026-04-03T09:50:19.771Z</time></trkpt><trkpt lat="44.0926567" lon="9.813215"><ele>104.0</ele><time>2026-04-03T09:50:23.772Z</time></trkpt><trkpt lat="44.0926017" lon="9.813285"><ele>104.0</ele><time>2026-04-03T09:50:34.771Z</time></trkpt><trkpt lat="44.092615" lon="9.8133867"><ele>104.0</ele><time>2026-04-03T09:50:39.772Z</time></trkpt><trkpt lat="44.09267" lon="9.81333"><ele>104.0</ele><time>2026-04-03T09:50:45.771Z</time></trkpt><trkpt lat="44.092625" lon="9.8132683"><ele>104.0</ele><time>2026-04-03T09:50:51.771Z</time></trkpt><trkpt lat="44.0925983" lon="9.8133483"><ele>104.0</ele><time>2026-04-03T09:51:12.771Z</time></trkpt><trkpt lat="44.0926133" lon="9.813255"><ele>104.0</ele><time>2026-04-03T09:51:26.772Z</time></trkpt><trkpt lat="44.0925833" lon="9.81316"><ele>104.0</ele><time>2026-04-03T09:51:32.771Z</time></trkpt><trkpt lat="44.0925767" lon="9.81306"><ele>104.0</ele><time>2026-04-03T09:51:36.771Z</time></trkpt><trkpt lat="44.09252" lon="9.81302"><ele>104.0</ele><time>2026-04-03T09:51:41.771Z</time></trkpt><trkpt lat="44.0924917" lon="9.8129417"><ele>104.0</ele><time>2026-04-03T09:51:45.772Z</time></trkpt><trkpt lat="44.0924917" lon="9.8128467"><ele>104.0</ele><time>2026-04-03T09:51:50.772Z</time></trkpt><trkpt lat="44.0924633" lon="9.81274"><ele>103.85714285714285</ele><time>2026-04-03T09:51:54.771Z</time></trkpt><trkpt lat="44.0924233" lon="9.812655"><ele>103.71428571428572</ele><time>2026-04-03T09:51:58.771Z</time></trkpt><trkpt lat="44.0923917" lon="9.812575"><ele>103.57142857142857</ele><time>2026-04-03T09:52:03.772Z</time></trkpt><trkpt lat="44.092405" lon="9.8124833"><ele>103.42857142857142</ele><time>2026-04-03T09:52:08.771Z</time></trkpt><trkpt lat="44.0924467" lon="9.8124"><ele>103.28571428571428</ele><time>2026-04-03T09:52:12.772Z</time></trkpt><trkpt lat="44.0924917" lon="9.81233"><ele>103.14285714285714</ele><time>2026-04-03T09:52:16.772Z</time></trkpt><trkpt lat="44.0925017" lon="9.8122433"><ele>103.0</ele><time>2026-04-03T09:52:21.772Z</time></trkpt><trkpt lat="44.0925183" lon="9.8121583"><ele>104.42857142857142</ele><time>2026-04-03T09:52:25.772Z</time></trkpt><trkpt lat="44.0925633" lon="9.8120867"><ele>105.85714285714286</ele><time>2026-04-03T09:52:34.771Z</time></trkpt><trkpt lat="44.0926183" lon="9.8120267"><ele>107.28571428571428</ele><time>2026-04-03T09:52:45.772Z</time></trkpt><trkpt lat="44.0926483" lon="9.8119483"><ele>108.71428571428571</ele><time>2026-04-03T09:52:51.771Z</time></trkpt><trkpt lat="44.0926917" lon="9.8118567"><ele>110.14285714285714</ele><time>2026-04-03T09:55:50.77Z</time></trkpt><trkpt lat="44.0926733" lon="9.8117683"><ele>111.57142857142857</ele><time>2026-04-03T09:56:12.771Z</time></trkpt><trkpt lat="44.09269" lon="9.8116717"><ele>113.0</ele><time>2026-04-03T09:56:27.77Z</time></trkpt><trkpt lat="44.0926383" lon="9.8116133"><ele>114.28571428571429</ele><time>2026-04-03T09:56:36.77Z</time></trkpt><trkpt lat="44.09258" lon="9.8115667"><ele>115.57142857142856</ele><time>2026-04-03T09:56:47.771Z</time></trkpt><trkpt lat="44.0925783" lon="9.8114583"><ele>116.85714285714285</ele><time>2026-04-03T09:57:13.77Z</time></trkpt><trkpt lat="44.0926233" lon="9.81138"><ele>118.14285714285714</ele><time>2026-04-03T09:57:18.771Z</time></trkpt><trkpt lat="44.0926783" lon="9.8113267"><ele>119.42857142857142</ele><time>2026-04-03T09:57:23.77Z</time></trkpt><trkpt lat="44.092675" lon="9.81123"><ele>120.7142857142857</ele><time>2026-04-03T09:57:31.769Z</time></trkpt><trkpt lat="44.0926333" lon="9.811155"><ele>121.99999999999999</ele><time>2026-04-03T09:57:42.77Z</time></trkpt><trkpt lat="44.09261" lon="9.81107"><ele>121.99999999999999</ele><time>2026-04-03T09:57:47.77Z</time></trkpt><trkpt lat="44.0925433" lon="9.81103"><ele>122.0</ele><time>2026-04-03T09:57:53.769Z</time></trkpt><trkpt lat="44.0924783" lon="9.81103"><ele>121.99999999999999</ele><time>2026-04-03T09:58:01.77Z</time></trkpt><trkpt lat="44.0924167" lon="9.81105"><ele>121.99999999999999</ele><time>2026-04-03T09:58:08.77Z</time></trkpt><trkpt lat="44.0923533" lon="9.8110117"><ele>122.0</ele><time>2026-04-03T09:58:24.77Z</time></trkpt><trkpt lat="44.0922833" lon="9.8110067"><ele>121.99999999999999</ele><time>2026-04-03T09:58:32.77Z</time></trkpt><trkpt lat="44.0921983" lon="9.810925"><ele>121.99999999999999</ele><time>2026-04-03T09:59:48.769Z</time></trkpt><trkpt lat="44.0921367" lon="9.8108933"><ele>124.42857142857142</ele><time>2026-04-03T09:59:54.77Z</time></trkpt><trkpt lat="44.0920683" lon="9.8108517"><ele>126.85714285714286</ele><time>2026-04-03T09:59:58.769Z</time></trkpt><trkpt lat="44.0920117" lon="9.8108033"><ele>129.28571428571428</ele><time>2026-04-03T10:00:02.77Z</time></trkpt><trkpt lat="44.091945" lon="9.81076"><ele>131.71428571428572</ele><time>2026-04-03T10:00:07.77Z</time></trkpt><trkpt lat="44.0918867" lon="9.8107133"><ele>134.14285714285714</ele><time>2026-04-03T10:00:11.769Z</time></trkpt><trkpt lat="44.0918283" lon="9.810665"><ele>136.57142857142856</ele><time>2026-04-03T10:00:16.769Z</time></trkpt><trkpt lat="44.091775" lon="9.8106133"><ele>139.0</ele><time>2026-04-03T10:00:21.77Z</time></trkpt><trkpt lat="44.09171" lon="9.8105633"><ele>139.33333333333334</ele><time>2026-04-03T10:00:27.769Z</time></trkpt><trkpt lat="44.09158" lon="9.810455"><ele>139.66666666666669</ele><time>2026-04-03T10:01:40.768Z</time></trkpt><trkpt lat="44.09157" lon="9.8103667"><ele>140.0</ele><time>2026-04-03T10:01:42.769Z</time></trkpt><trkpt lat="44.0915533" lon="9.8102617"><ele>140.33333333333334</ele><time>2026-04-03T10:01:44.769Z</time></trkpt><trkpt lat="44.0915417" lon="9.8101667"><ele>140.66666666666666</ele><time>2026-04-03T10:01:46.769Z</time></trkpt><trkpt lat="44.0915267" lon="9.8100633"><ele>141.0</ele><time>2026-04-03T10:01:49.769Z</time></trkpt><trkpt lat="44.0914733" lon="9.8101233"><ele>141.0</ele><time>2026-04-03T10:02:05.769Z</time></trkpt><trkpt lat="44.0914333" lon="9.8102317"><ele>141.0</ele><time>2026-04-03T10:02:07.769Z</time></trkpt><trkpt lat="44.09141" lon="9.810325"><ele>141.0</ele><time>2026-04-03T10:02:09.768Z</time></trkpt><trkpt lat="44.0913733" lon="9.8104133"><ele>141.0</ele><time>2026-04-03T10:02:11.768Z</time></trkpt><trkpt lat="44.091345" lon="9.8105083"><ele>141.0</ele><time>2026-04-03T10:02:13.769Z</time></trkpt><trkpt lat="44.0913367" lon="9.8106267"><ele>141.0</ele><time>2026-04-03T10:02:15.768Z</time></trkpt><trkpt lat="44.091255" lon="9.81075"><ele>141.0</ele><time>2026-04-03T10:02:18.769Z</time></trkpt><trkpt lat="44.0912033" lon="9.81086"><ele>141.0</ele><time>2026-04-03T10:02:20.768Z</time></trkpt><trkpt lat="44.0911333" lon="9.810955"><ele>141.0</ele><time>2026-04-03T10:02:22.769Z</time></trkpt><trkpt lat="44.0910767" lon="9.811015"><ele>141.0</ele><time>2026-04-03T10:02:24.769Z</time></trkpt><trkpt lat="44.09109" lon="9.8111067"><ele>141.0</ele><time>2026-04-03T10:02:27.769Z</time></trkpt><trkpt lat="44.0911433" lon="9.81119"><ele>141.0</ele><time>2026-04-03T10:02:31.769Z</time></trkpt><trkpt lat="44.091195" lon="9.81127"><ele>138.0</ele><time>2026-04-03T10:02:34.769Z</time></trkpt><trkpt lat="44.091265" lon="9.8113583"><ele>135.0</ele><time>2026-04-03T10:02:37.768Z</time></trkpt><trkpt lat="44.09133" lon="9.811395"><ele>132.0</ele><time>2026-04-03T10:02:39.768Z</time></trkpt><trkpt lat="44.0914033" lon="9.8114083"><ele>129.0</ele><time>2026-04-03T10:02:41.769Z</time></trkpt><trkpt lat="44.0914667" lon="9.811395"><ele>126.0</ele><time>2026-04-03T10:02:43.768Z</time></trkpt><trkpt lat="44.0915467" lon="9.8113767"><ele>123.0</ele><time>2026-04-03T10:02:46.768Z</time></trkpt><trkpt lat="44.0916167" lon="9.8113483"><ele>123.0</ele><time>2026-04-03T10:02:49.768Z</time></trkpt><trkpt lat="44.0916867" lon="9.8113033"><ele>123.0</ele><time>2026-04-03T10:02:52.768Z</time></trkpt><trkpt lat="44.0917617" lon="9.8112617"><ele>123.0</ele><time>2026-04-03T10:02:55.769Z</time></trkpt><trkpt lat="44.0918317" lon="9.8112183"><ele>123.0</ele><time>2026-04-03T10:02:57.768Z</time></trkpt><trkpt lat="44.0919117" lon="9.81119"><ele>123.0</ele><time>2026-04-03T10:02:59.768Z</time></trkpt><trkpt lat="44.09199" lon="9.8111967"><ele>123.0</ele><time>2026-04-03T10:03:01.769Z</time></trkpt><trkpt lat="44.0920667" lon="9.81123"><ele>123.0</ele><time>2026-04-03T10:03:03.769Z</time></trkpt><trkpt lat="44.09214" lon="9.81128"><ele>123.00000000000001</ele><time>2026-04-03T10:03:05.769Z</time></trkpt><trkpt lat="44.0922033" lon="9.8113433"><ele>123.00000000000001</ele><time>2026-04-03T10:03:07.769Z</time></trkpt><trkpt lat="44.0922683" lon="9.8114333"><ele>123.0</ele><time>2026-04-03T10:03:09.769Z</time></trkpt><trkpt lat="44.0923283" lon="9.8115417"><ele>123.0</ele><time>2026-04-03T10:03:11.768Z</time></trkpt><trkpt lat="44.092395" lon="9.811655"><ele>122.83333333333333</ele><time>2026-04-03T10:03:13.768Z</time></trkpt><trkpt lat="44.09247" lon="9.8117333"><ele>122.66666666666666</ele><time>2026-04-03T10:03:15.768Z</time></trkpt><trkpt lat="44.092555" lon="9.811785"><ele>122.5</ele><time>2026-04-03T10:03:17.769Z</time></trkpt><trkpt lat="44.092615" lon="9.811855"><ele>122.33333333333333</ele><time>2026-04-03T10:03:19.768Z</time></trkpt><trkpt lat="44.0926417" lon="9.8119467"><ele>122.16666666666666</ele><time>2026-04-03T10:03:28.768Z</time></trkpt><trkpt lat="44.0925983" lon="9.8120383"><ele>122.0</ele><time>2026-04-03T10:03:31.769Z</time></trkpt><trkpt lat="44.09254" lon="9.8121483"><ele>120.49999999999999</ele><time>2026-04-03T10:03:34.769Z</time></trkpt><trkpt lat="44.0925017" lon="9.812245"><ele>119.0</ele><time>2026-04-03T10:03:36.768Z</time></trkpt><trkpt lat="44.0924517" lon="9.812325"><ele>117.5</ele><time>2026-04-03T10:03:39.768Z</time></trkpt><trkpt lat="44.0924683" lon="9.8124167"><ele>116.0</ele><time>2026-04-03T10:04:01.769Z</time></trkpt><trkpt lat="44.092445" lon="9.8125183"><ele>114.49999999999999</ele><time>2026-04-03T10:04:32.775Z</time></trkpt><trkpt lat="44.0924767" lon="9.812625"><ele>113.0</ele><time>2026-04-03T10:04:34.775Z</time></trkpt><trkpt lat="44.0925067" lon="9.812755"><ele>111.2</ele><time>2026-04-03T10:04:36.776Z</time></trkpt><trkpt lat="44.0925117" lon="9.8128717"><ele>109.4</ele><time>2026-04-03T10:04:38.776Z</time></trkpt><trkpt lat="44.0925283" lon="9.812975"><ele>107.60000000000001</ele><time>2026-04-03T10:04:40.776Z</time></trkpt><trkpt lat="44.092585" lon="9.813095"><ele>105.80000000000001</ele><time>2026-04-03T10:04:42.776Z</time></trkpt><trkpt lat="44.0925883" lon="9.8132433"><ele>104.0</ele><time>2026-04-03T10:04:44.776Z</time></trkpt><trkpt lat="44.0926133" lon="9.81338"><ele>101.0</ele><time>2026-04-03T10:04:46.776Z</time></trkpt><trkpt lat="44.0926433" lon="9.8135333"><ele>98.0</ele><time>2026-04-03T10:04:48.775Z</time></trkpt><trkpt lat="44.09271" lon="9.813675"><ele>95.0</ele><time>2026-04-03T10:04:50.775Z</time></trkpt><trkpt lat="44.0927983" lon="9.8137883"><ele>92.0</ele><time>2026-04-03T10:04:52.776Z</time></trkpt><trkpt lat="44.0928917" lon="9.8138917"><ele>92.0</ele><time>2026-04-03T10:04:54.776Z</time></trkpt><trkpt lat="44.09296" lon="9.813975"><ele>92.0</ele><time>2026-04-03T10:04:56.774Z</time></trkpt><trkpt lat="44.0929817" lon="9.8141517"><ele>92.0</ele><time>2026-04-03T10:04:58.775Z</time></trkpt><trkpt lat="44.092985" lon="9.814255"><ele>92.0</ele><time>2026-04-03T10:04:59.775Z</time></trkpt><trkpt lat="44.093005" lon="9.8143733"><ele>92.0</ele><time>2026-04-03T10:05:01.774Z</time></trkpt><trkpt lat="44.0930383" lon="9.8144633"><ele>89.0</ele><time>2026-04-03T10:05:04.775Z</time></trkpt><trkpt lat="44.09307" lon="9.8145633"><ele>86.0</ele><time>2026-04-03T10:05:06.775Z</time></trkpt><trkpt lat="44.0931183" lon="9.8146783"><ele>83.0</ele><time>2026-04-03T10:05:08.774Z</time></trkpt><trkpt lat="44.0931617" lon="9.8147917"><ele>80.0</ele><time>2026-04-03T10:05:10.775Z</time></trkpt><trkpt lat="44.093195" lon="9.8148917"><ele>77.0</ele><time>2026-04-03T10:05:12.774Z</time></trkpt><trkpt lat="44.0932383" lon="9.8149833"><ele>74.0</ele><time>2026-04-03T10:05:15.774Z</time></trkpt><trkpt lat="44.0932467" lon="9.8150717"><ele>72.57142857142857</ele><time>2026-04-03T10:05:19.774Z</time></trkpt><trkpt lat="44.093265" lon="9.8151567"><ele>71.14285714285714</ele><time>2026-04-03T10:05:22.775Z</time></trkpt><trkpt lat="44.093265" lon="9.8152633"><ele>69.71428571428571</ele><time>2026-04-03T10:05:26.775Z</time></trkpt><trkpt lat="44.0932633" lon="9.8153583"><ele>68.28571428571428</ele><time>2026-04-03T10:05:31.775Z</time></trkpt><trkpt lat="44.09333" lon="9.81537"><ele>66.85714285714285</ele><time>2026-04-03T10:05:55.775Z</time></trkpt><trkpt lat="44.0933167" lon="9.8154567"><ele>65.42857142857143</ele><time>2026-04-03T10:06:30.775Z</time></trkpt><trkpt lat="44.0933733" lon="9.8155017"><ele>64.0</ele><time>2026-04-03T10:06:44.775Z</time></trkpt><trkpt lat="44.093435" lon="9.8155333"><ele>63.99999999999999</ele><time>2026-04-03T10:06:48.774Z</time></trkpt><trkpt lat="44.0935383" lon="9.8155217"><ele>64.0</ele><time>2026-04-03T10:06:55.775Z</time></trkpt><trkpt lat="44.0936178" lon="9.8155303"><ele>64.0</ele><time>2026-04-03T10:07:33.774Z</time></trkpt><trkpt lat="44.0936693" lon="9.8154466"><ele>64.0</ele><time>2026-04-03T10:07:36.774Z</time></trkpt><trkpt lat="44.0937063" lon="9.8153285"><ele>63.99999999999999</ele><time>2026-04-03T10:07:39.775Z</time></trkpt><trkpt lat="44.0937304" lon="9.815242"><ele>64.0</ele><time>2026-04-03T10:07:41.775Z</time></trkpt><trkpt lat="44.0937637" lon="9.8151433"><ele>68.0</ele><time>2026-04-03T10:07:43.775Z</time></trkpt><trkpt lat="44.0938023" lon="9.8150307"><ele>72.0</ele><time>2026-04-03T10:07:45.774Z</time></trkpt><trkpt lat="44.09386" lon="9.8148913"><ele>76.0</ele><time>2026-04-03T10:07:47.775Z</time></trkpt><trkpt lat="44.0939204" lon="9.8147626"><ele>80.0</ele><time>2026-04-03T10:07:49.774Z</time></trkpt><trkpt lat="44.0939967" lon="9.8146283"><ele>84.0</ele><time>2026-04-03T10:07:51.774Z</time></trkpt><trkpt lat="44.0940717" lon="9.8145133"><ele>80.60000000000001</ele><time>2026-04-03T10:07:53.775Z</time></trkpt><trkpt lat="44.0941333" lon="9.8143617"><ele>77.2</ele><time>2026-04-03T10:07:55.775Z</time></trkpt><trkpt lat="44.0941817" lon="9.8142933"><ele>73.80000000000001</ele><time>2026-04-03T10:07:56.775Z</time></trkpt><trkpt lat="44.0942633" lon="9.814165"><ele>70.4</ele><time>2026-04-03T10:07:58.774Z</time></trkpt><trkpt lat="44.0943033" lon="9.8140967"><ele>67.0</ele><time>2026-04-03T10:07:59.775Z</time></trkpt><trkpt lat="44.0943733" lon="9.81396"><ele>67.0</ele><time>2026-04-03T10:08:01.774Z</time></trkpt><trkpt lat="44.094455" lon="9.8138233"><ele>67.0</ele><time>2026-04-03T10:08:03.774Z</time></trkpt><trkpt lat="44.0945067" lon="9.8137483"><ele>67.0</ele><time>2026-04-03T10:08:04.774Z</time></trkpt><trkpt lat="44.0945617" lon="9.8136733"><ele>67.0</ele><time>2026-04-03T10:08:05.775Z</time></trkpt><trkpt lat="44.0946167" lon="9.8136033"><ele>67.0</ele><time>2026-04-03T10:08:06.775Z</time></trkpt><trkpt lat="44.0946717" lon="9.81354"><ele>67.0</ele><time>2026-04-03T10:08:07.775Z</time></trkpt><trkpt lat="44.09472" lon="9.8134717"><ele>65.0</ele><time>2026-04-03T10:08:08.775Z</time></trkpt><trkpt lat="44.09477" lon="9.8134033"><ele>63.0</ele><time>2026-04-03T10:08:09.775Z</time></trkpt><trkpt lat="44.094825" lon="9.8133383"><ele>61.0</ele><time>2026-04-03T10:08:10.775Z</time></trkpt><trkpt lat="44.09488" lon="9.813275"><ele>59.0</ele><time>2026-04-03T10:08:11.774Z</time></trkpt><trkpt lat="44.094935" lon="9.8132317"><ele>57.0</ele><time>2026-04-03T10:08:12.775Z</time></trkpt><trkpt lat="44.094995" lon="9.8131983"><ele>55.0</ele><time>2026-04-03T10:08:13.774Z</time></trkpt><trkpt lat="44.0950533" lon="9.8131617"><ele>53.0</ele><time>2026-04-03T10:08:14.775Z</time></trkpt><trkpt lat="44.0951217" lon="9.8131267"><ele>53.0</ele><time>2026-04-03T10:08:15.775Z</time></trkpt><trkpt lat="44.0952367" lon="9.8130617"><ele>53.0</ele><time>2026-04-03T10:08:17.774Z</time></trkpt><trkpt lat="44.09534" lon="9.812985"><ele>53.0</ele><time>2026-04-03T10:08:19.774Z</time></trkpt><trkpt lat="44.0954333" lon="9.8128833"><ele>53.0</ele><time>2026-04-03T10:08:21.774Z</time></trkpt><trkpt lat="44.0954667" lon="9.8128083"><ele>53.0</ele><time>2026-04-03T10:08:22.775Z</time></trkpt><trkpt lat="44.0954983" lon="9.8126517"><ele>55.2</ele><time>2026-04-03T10:08:24.775Z</time></trkpt><trkpt lat="44.0954867" lon="9.8124983"><ele>57.4</ele><time>2026-04-03T10:08:26.775Z</time></trkpt><trkpt lat="44.095435" lon="9.8123433"><ele>59.60000000000001</ele><time>2026-04-03T10:08:28.775Z</time></trkpt><trkpt lat="44.0954017" lon="9.812265"><ele>61.800000000000004</ele><time>2026-04-03T10:08:29.774Z</time></trkpt><trkpt lat="44.0953367" lon="9.812115"><ele>64.0</ele><time>2026-04-03T10:08:31.775Z</time></trkpt><trkpt lat="44.0952967" lon="9.8120433"><ele>64.0</ele><time>2026-04-03T10:08:32.775Z</time></trkpt><trkpt lat="44.0952267" lon="9.8119033"><ele>64.0</ele><time>2026-04-03T10:08:34.775Z</time></trkpt><trkpt lat="44.095145" lon="9.811795"><ele>64.0</ele><time>2026-04-03T10:08:36.775Z</time></trkpt><trkpt lat="44.0950933" lon="9.8117367"><ele>64.0</ele><time>2026-04-03T10:08:37.775Z</time></trkpt><trkpt lat="44.0950317" lon="9.8116783"><ele>64.0</ele><time>2026-04-03T10:08:38.775Z</time></trkpt><trkpt lat="44.0949717" lon="9.8116117"><ele>65.66666666666666</ele><time>2026-04-03T10:08:39.774Z</time></trkpt><trkpt lat="44.0949033" lon="9.8115483"><ele>67.33333333333333</ele><time>2026-04-03T10:08:40.774Z</time></trkpt><trkpt lat="44.0948367" lon="9.81148"><ele>69.0</ele><time>2026-04-03T10:08:41.775Z</time></trkpt><trkpt lat="44.0947867" lon="9.8113917"><ele>70.66666666666667</ele><time>2026-04-03T10:08:42.773Z</time></trkpt><trkpt lat="44.0947333" lon="9.8112983"><ele>72.33333333333334</ele><time>2026-04-03T10:08:43.774Z</time></trkpt><trkpt lat="44.094685" lon="9.8112"><ele>74.0</ele><time>2026-04-03T10:08:44.773Z</time></trkpt><trkpt lat="44.094635" lon="9.8111033"><ele>74.0</ele><time>2026-04-03T10:08:45.774Z</time></trkpt><trkpt lat="44.0945883" lon="9.81101"><ele>74.0</ele><time>2026-04-03T10:08:46.773Z</time></trkpt><trkpt lat="44.094535" lon="9.8109117"><ele>74.0</ele><time>2026-04-03T10:08:47.773Z</time></trkpt><trkpt lat="44.0944767" lon="9.8108167"><ele>74.0</ele><time>2026-04-03T10:08:48.773Z</time></trkpt><trkpt lat="44.0944283" lon="9.8107283"><ele>74.0</ele><time>2026-04-03T10:08:49.774Z</time></trkpt><trkpt lat="44.0943867" lon="9.810655"><ele>74.0</ele><time>2026-04-03T10:08:50.773Z</time></trkpt><trkpt lat="44.094345" lon="9.8105867"><ele>71.66666666666667</ele><time>2026-04-03T10:08:51.773Z</time></trkpt><trkpt lat="44.0943067" lon="9.81047"><ele>69.33333333333334</ele><time>2026-04-03T10:08:53.774Z</time></trkpt><trkpt lat="44.0943317" lon="9.8103883"><ele>67.0</ele><time>2026-04-03T10:08:55.773Z</time></trkpt><trkpt lat="44.0943867" lon="9.8103317"><ele>64.66666666666667</ele><time>2026-04-03T10:08:57.773Z</time></trkpt><trkpt lat="44.0945067" lon="9.810325"><ele>62.333333333333336</ele><time>2026-04-03T10:08:59.774Z</time></trkpt><trkpt lat="44.094575" lon="9.8103417"><ele>60.0</ele><time>2026-04-03T10:09:00.774Z</time></trkpt><trkpt lat="44.094685" lon="9.8104083"><ele>60.0</ele><time>2026-04-03T10:09:02.773Z</time></trkpt><trkpt lat="44.094745" lon="9.81045"><ele>60.0</ele><time>2026-04-03T10:09:03.774Z</time></trkpt><trkpt lat="44.094865" lon="9.8105117"><ele>60.0</ele><time>2026-04-03T10:09:05.774Z</time></trkpt><trkpt lat="44.0949383" lon="9.8105583"><ele>60.0</ele><time>2026-04-03T10:09:06.774Z</time></trkpt><trkpt lat="44.0950167" lon="9.8106"><ele>60.0</ele><time>2026-04-03T10:09:07.774Z</time></trkpt><trkpt lat="44.0950917" lon="9.8106483"><ele>60.0</ele><time>2026-04-03T10:09:08.773Z</time></trkpt><trkpt lat="44.09516" lon="9.8107033"><ele>58.833333333333336</ele><time>2026-04-03T10:09:09.773Z</time></trkpt><trkpt lat="44.09522" lon="9.81077"><ele>57.66666666666667</ele><time>2026-04-03T10:09:10.773Z</time></trkpt><trkpt lat="44.0952717" lon="9.8108333"><ele>56.5</ele><time>2026-04-03T10:09:11.774Z</time></trkpt><trkpt lat="44.095345" lon="9.8109467"><ele>55.333333333333336</ele><time>2026-04-03T10:09:13.773Z</time></trkpt><trkpt lat="44.09542" lon="9.81101"><ele>54.16666666666667</ele><time>2026-04-03T10:09:15.773Z</time></trkpt><trkpt lat="44.0955083" lon="9.81101"><ele>53.0</ele><time>2026-04-03T10:09:17.774Z</time></trkpt><trkpt lat="44.0956283" lon="9.8109867"><ele>51.333333333333336</ele><time>2026-04-03T10:09:19.773Z</time></trkpt><trkpt lat="44.0956917" lon="9.8109617"><ele>49.66666666666667</ele><time>2026-04-03T10:09:20.773Z</time></trkpt><trkpt lat="44.095755" lon="9.810965"><ele>48.0</ele><time>2026-04-03T10:09:21.774Z</time></trkpt><trkpt lat="44.0958717" lon="9.811005"><ele>46.333333333333336</ele><time>2026-04-03T10:09:23.774Z</time></trkpt><trkpt lat="44.0959367" lon="9.8110333"><ele>44.66666666666667</ele><time>2026-04-03T10:09:24.773Z</time></trkpt><trkpt lat="44.0960483" lon="9.8110633"><ele>43.0</ele><time>2026-04-03T10:09:26.774Z</time></trkpt><trkpt lat="44.09616" lon="9.8109917"><ele>41.16666666666667</ele><time>2026-04-03T10:09:28.774Z</time></trkpt><trkpt lat="44.0962217" lon="9.810945"><ele>39.333333333333336</ele><time>2026-04-03T10:09:29.774Z</time></trkpt><trkpt lat="44.0963183" lon="9.8108417"><ele>37.5</ele><time>2026-04-03T10:09:31.774Z</time></trkpt><trkpt lat="44.0963767" lon="9.8107883"><ele>35.666666666666664</ele><time>2026-04-03T10:09:33.774Z</time></trkpt><trkpt lat="44.096445" lon="9.8107683"><ele>33.83333333333333</ele><time>2026-04-03T10:09:37.774Z</time></trkpt><trkpt lat="44.0965017" lon="9.8107217"><ele>32.0</ele><time>2026-04-03T10:09:40.773Z</time></trkpt><trkpt lat="44.0965817" lon="9.8106483"><ele>30.71428571428571</ele><time>2026-04-03T10:09:43.774Z</time></trkpt><trkpt lat="44.0966433" lon="9.810575"><ele>29.428571428571423</ele><time>2026-04-03T10:09:45.774Z</time></trkpt><trkpt lat="44.0967017" lon="9.81053"><ele>28.142857142857142</ele><time>2026-04-03T10:09:47.773Z</time></trkpt><trkpt lat="44.0967767" lon="9.81049"><ele>26.857142857142854</ele><time>2026-04-03T10:09:50.773Z</time></trkpt><trkpt lat="44.096835" lon="9.81053"><ele>25.57142857142857</ele><time>2026-04-03T10:09:54.773Z</time></trkpt><trkpt lat="44.09688" lon="9.810625"><ele>24.285714285714285</ele><time>2026-04-03T10:09:57.773Z</time></trkpt><trkpt lat="44.0969383" lon="9.8106783"><ele>23.0</ele><time>2026-04-03T10:10:02.774Z</time></trkpt><trkpt lat="44.0969767" lon="9.81075"><ele>23.0</ele><time>2026-04-03T10:10:05.774Z</time></trkpt><trkpt lat="44.0970167" lon="9.8108333"><ele>23.0</ele><time>2026-04-03T10:10:07.773Z</time></trkpt><trkpt lat="44.0970833" lon="9.8109183"><ele>23.0</ele><time>2026-04-03T10:10:10.774Z</time></trkpt><trkpt lat="44.09712" lon="9.811"><ele>23.0</ele><time>2026-04-03T10:10:12.774Z</time></trkpt><trkpt lat="44.0971567" lon="9.8111"><ele>23.0</ele><time>2026-04-03T10:10:14.773Z</time></trkpt><trkpt lat="44.09721" lon="9.8112083"><ele>23.0</ele><time>2026-04-03T10:10:16.773Z</time></trkpt><trkpt lat="44.0972517" lon="9.8113267"><ele>23.0</ele><time>2026-04-03T10:10:18.774Z</time></trkpt><trkpt lat="44.0972933" lon="9.8114783"><ele>23.0</ele><time>2026-04-03T10:10:20.773Z</time></trkpt><trkpt lat="44.0973533" lon="9.8116417"><ele>23.0</ele><time>2026-04-03T10:10:22.773Z</time></trkpt><trkpt lat="44.0973833" lon="9.8117317"><ele>23.0</ele><time>2026-04-03T10:10:23.773Z</time></trkpt><trkpt lat="44.0974117" lon="9.8118167"><ele>23.0</ele><time>2026-04-03T10:10:24.774Z</time></trkpt><trkpt lat="44.097455" lon="9.8119617"><ele>21.5</ele><time>2026-04-03T10:10:26.773Z</time></trkpt><trkpt lat="44.0974917" lon="9.8120583"><ele>20.0</ele><time>2026-04-03T10:10:29.774Z</time></trkpt><trkpt lat="44.0975667" lon="9.8119867"><ele>18.5</ele><time>2026-04-03T10:10:48.774Z</time></trkpt><trkpt lat="44.0976367" lon="9.8119167"><ele>17.0</ele><time>2026-04-03T10:10:51.773Z</time></trkpt><trkpt lat="44.09769" lon="9.8118467"><ele>15.500000000000002</ele><time>2026-04-03T10:10:53.774Z</time></trkpt><trkpt lat="44.0977483" lon="9.8117633"><ele>14.0</ele><time>2026-04-03T10:10:55.774Z</time></trkpt><trkpt lat="44.0978067" lon="9.8116817"><ele>14.0</ele><time>2026-04-03T10:10:57.773Z</time></trkpt><trkpt lat="44.09786" lon="9.8115917"><ele>13.999999999999998</ele><time>2026-04-03T10:10:59.773Z</time></trkpt><trkpt lat="44.0979233" lon="9.81149"><ele>13.999999999999998</ele><time>2026-04-03T10:11:01.773Z</time></trkpt><trkpt lat="44.097995" lon="9.8113717"><ele>14.0</ele><time>2026-04-03T10:11:03.773Z</time></trkpt><trkpt lat="44.0980733" lon="9.8112433"><ele>14.0</ele><time>2026-04-03T10:11:05.773Z</time></trkpt><trkpt lat="44.0981567" lon="9.8111167"><ele>14.6</ele><time>2026-04-03T10:11:07.774Z</time></trkpt><trkpt lat="44.0982283" lon="9.8109833"><ele>15.2</ele><time>2026-04-03T10:11:09.774Z</time></trkpt><trkpt lat="44.0982683" lon="9.8109133"><ele>15.799999999999999</ele><time>2026-04-03T10:11:10.774Z</time></trkpt><trkpt lat="44.098305" lon="9.81084"><ele>16.4</ele><time>2026-04-03T10:11:11.773Z</time></trkpt><trkpt lat="44.0983617" lon="9.81071"><ele>17.0</ele><time>2026-04-03T10:11:13.774Z</time></trkpt><trkpt lat="44.0984283" lon="9.8105833"><ele>14.75</ele><time>2026-04-03T10:11:15.773Z</time></trkpt><trkpt lat="44.0985067" lon="9.8104483"><ele>12.5</ele><time>2026-04-03T10:11:17.773Z</time></trkpt><trkpt lat="44.09858" lon="9.8103233"><ele>10.25</ele><time>2026-04-03T10:11:19.773Z</time></trkpt><trkpt lat="44.09866" lon="9.8101917"><ele>8.0</ele><time>2026-04-03T10:11:21.773Z</time></trkpt><trkpt lat="44.0987383" lon="9.810075"><ele>7.999999999999999</ele><time>2026-04-03T10:11:23.774Z</time></trkpt><trkpt lat="44.0988" lon="9.8099967"><ele>8.0</ele><time>2026-04-03T10:11:25.774Z</time></trkpt><trkpt lat="44.0988367" lon="9.8099167"><ele>8.0</ele><time>2026-04-03T10:11:29.773Z</time></trkpt><trkpt lat="44.0989067" lon="9.8099733"><ele>8.0</ele><time>2026-04-03T10:11:32.773Z</time></trkpt><trkpt lat="44.0990133" lon="9.8099583"><ele>7.999999999999999</ele><time>2026-04-03T10:11:34.773Z</time></trkpt><trkpt lat="44.0990933" lon="9.809925"><ele>8.0</ele><time>2026-04-03T10:11:36.774Z</time></trkpt><trkpt lat="44.0991833" lon="9.809885"><ele>7.0</ele><time>2026-04-03T10:11:38.774Z</time></trkpt><trkpt lat="44.099265" lon="9.8098117"><ele>6.000000000000001</ele><time>2026-04-03T10:11:40.774Z</time></trkpt><trkpt lat="44.0993317" lon="9.8097"><ele>5.0</ele><time>2026-04-03T10:11:42.774Z</time></trkpt><trkpt lat="44.099385" lon="9.80957"><ele>4.0</ele><time>2026-04-03T10:11:44.773Z</time></trkpt><trkpt lat="44.0994417" lon="9.8094567"><ele>3.0</ele><time>2026-04-03T10:11:46.774Z</time></trkpt><trkpt lat="44.0994933" lon="9.809355"><ele>6.199999999999999</ele><time>2026-04-03T10:11:48.773Z</time></trkpt><trkpt lat="44.0995467" lon="9.80925"><ele>9.399999999999999</ele><time>2026-04-03T10:11:50.774Z</time></trkpt><trkpt lat="44.099615" lon="9.8091317"><ele>12.599999999999998</ele><time>2026-04-03T10:11:52.774Z</time></trkpt><trkpt lat="44.0996817" lon="9.809"><ele>15.799999999999999</ele><time>2026-04-03T10:11:54.774Z</time></trkpt><trkpt lat="44.0997433" lon="9.8088867"><ele>19.0</ele><time>2026-04-03T10:11:56.774Z</time></trkpt><trkpt lat="44.0998083" lon="9.8087933"><ele>19.0</ele><time>2026-04-03T10:11:58.773Z</time></trkpt><trkpt lat="44.0998633" lon="9.808695"><ele>19.0</ele><time>2026-04-03T10:12:00.773Z</time></trkpt><trkpt lat="44.099915" lon="9.8086033"><ele>19.0</ele><time>2026-04-03T10:12:02.773Z</time></trkpt><trkpt lat="44.0999617" lon="9.8085267"><ele>19.0</ele><time>2026-04-03T10:12:04.773Z</time></trkpt><trkpt lat="44.1000117" lon="9.8084317"><ele>19.0</ele><time>2026-04-03T10:12:07.774Z</time></trkpt><trkpt lat="44.1000583" lon="9.80837"><ele>19.0</ele><time>2026-04-03T10:12:09.774Z</time></trkpt><trkpt lat="44.100125" lon="9.8082767"><ele>17.666666666666664</ele><time>2026-04-03T10:12:11.774Z</time></trkpt><trkpt lat="44.1002033" lon="9.8081883"><ele>16.333333333333332</ele><time>2026-04-03T10:12:13.774Z</time></trkpt><trkpt lat="44.100295" lon="9.8081317"><ele>15.0</ele><time>2026-04-03T10:12:15.773Z</time></trkpt><trkpt lat="44.10039" lon="9.8080967"><ele>13.666666666666666</ele><time>2026-04-03T10:12:17.773Z</time></trkpt><trkpt lat="44.100455" lon="9.8080583"><ele>12.333333333333332</ele><time>2026-04-03T10:12:19.773Z</time></trkpt><trkpt lat="44.10045" lon="9.80797"><ele>11.0</ele><time>2026-04-03T10:12:32.774Z</time></trkpt><trkpt lat="44.1004367" lon="9.80786"><ele>11.0</ele><time>2026-04-03T10:12:35.774Z</time></trkpt><trkpt lat="44.1004" lon="9.8077683"><ele>11.0</ele><time>2026-04-03T10:12:39.774Z</time></trkpt><trkpt lat="44.10035" lon="9.8076933"><ele>11.0</ele><time>2026-04-03T10:12:43.773Z</time></trkpt><trkpt lat="44.10036" lon="9.80758"><ele>11.0</ele><time>2026-04-03T10:12:45.774Z</time></trkpt><trkpt lat="44.1003483" lon="9.8074833"><ele>11.0</ele><time>2026-04-03T10:12:47.773Z</time></trkpt><trkpt lat="44.1003567" lon="9.8073533"><ele>11.0</ele><time>2026-04-03T10:12:50.773Z</time></trkpt><trkpt lat="44.1003567" lon="9.8072633"><ele>11.5</ele><time>2026-04-03T10:12:52.772Z</time></trkpt><trkpt lat="44.10037" lon="9.8071417"><ele>12.0</ele><time>2026-04-03T10:12:55.773Z</time></trkpt><trkpt lat="44.1003267" lon="9.8070567"><ele>12.5</ele><time>2026-04-03T10:13:00.772Z</time></trkpt><trkpt lat="44.10033" lon="9.8069267"><ele>13.0</ele><time>2026-04-03T10:13:03.773Z</time></trkpt><trkpt lat="44.1003367" lon="9.8068217"><ele>13.500000000000002</ele><time>2026-04-03T10:13:06.772Z</time></trkpt><trkpt lat="44.100335" lon="9.8067017"><ele>14.0</ele><time>2026-04-03T10:13:09.772Z</time></trkpt><trkpt lat="44.1003283" lon="9.8066067"><ele>14.714285714285715</ele><time>2026-04-03T10:13:12.773Z</time></trkpt><trkpt lat="44.1002867" lon="9.8065183"><ele>15.428571428571429</ele><time>2026-04-03T10:13:15.772Z</time></trkpt><trkpt lat="44.10028" lon="9.8064217"><ele>16.142857142857142</ele><time>2026-04-03T10:13:17.773Z</time></trkpt><trkpt lat="44.1002717" lon="9.80633"><ele>16.857142857142858</ele><time>2026-04-03T10:13:19.773Z</time></trkpt><trkpt lat="44.1002383" lon="9.806225"><ele>17.571428571428573</ele><time>2026-04-03T10:13:22.773Z</time></trkpt><trkpt lat="44.1001883" lon="9.806145"><ele>18.285714285714285</ele><time>2026-04-03T10:13:25.773Z</time></trkpt><trkpt lat="44.1001317" lon="9.806095"><ele>19.0</ele><time>2026-04-03T10:13:28.773Z</time></trkpt><trkpt lat="44.1000767" lon="9.806025"><ele>18.833333333333332</ele><time>2026-04-03T10:13:31.773Z</time></trkpt><trkpt lat="44.1000517" lon="9.8059167"><ele>18.666666666666664</ele><time>2026-04-03T10:13:35.772Z</time></trkpt><trkpt lat="44.1000333" lon="9.80581"><ele>18.5</ele><time>2026-04-03T10:13:39.772Z</time></trkpt><trkpt lat="44.1000117" lon="9.805695"><ele>18.333333333333332</ele><time>2026-04-03T10:13:43.772Z</time></trkpt><trkpt lat="44.0999717" lon="9.805585"><ele>18.166666666666668</ele><time>2026-04-03T10:13:46.773Z</time></trkpt><trkpt lat="44.099945" lon="9.805495"><ele>18.0</ele><time>2026-04-03T10:13:49.773Z</time></trkpt><trkpt lat="44.09992" lon="9.8054033"><ele>18.666666666666668</ele><time>2026-04-03T10:13:52.773Z</time></trkpt><trkpt lat="44.0999" lon="9.80532"><ele>19.333333333333332</ele><time>2026-04-03T10:13:55.773Z</time></trkpt><trkpt lat="44.09988" lon="9.8052317"><ele>20.0</ele><time>2026-04-03T10:13:59.773Z</time></trkpt><trkpt lat="44.0998683" lon="9.80511"><ele>20.666666666666664</ele><time>2026-04-03T10:14:06.773Z</time></trkpt><trkpt lat="44.0999283" lon="9.805005"><ele>21.333333333333332</ele><time>2026-04-03T10:14:14.772Z</time></trkpt><trkpt lat="44.1" lon="9.8049817"><ele>22.0</ele><time>2026-04-03T10:14:19.772Z</time></trkpt><trkpt lat="44.1000717" lon="9.8049933"><ele>22.0</ele><time>2026-04-03T10:14:23.772Z</time></trkpt><trkpt lat="44.10014" lon="9.8050167"><ele>22.0</ele><time>2026-04-03T10:14:28.773Z</time></trkpt><trkpt lat="44.1002117" lon="9.805035"><ele>22.0</ele><time>2026-04-03T10:14:33.773Z</time></trkpt><trkpt lat="44.1002833" lon="9.8050483"><ele>22.0</ele><time>2026-04-03T10:14:38.772Z</time></trkpt><trkpt lat="44.100345" lon="9.8050833"><ele>22.0</ele><time>2026-04-03T10:14:43.773Z</time></trkpt><trkpt lat="44.1004217" lon="9.8050983"><ele>22.0</ele><time>2026-04-03T10:14:47.773Z</time></trkpt><trkpt lat="44.10049" lon="9.8051267"><ele>22.0</ele><time>2026-04-03T10:14:52.773Z</time></trkpt><trkpt lat="44.1005383" lon="9.8051917"><ele>21.42857142857143</ele><time>2026-04-03T10:14:57.773Z</time></trkpt><trkpt lat="44.1006067" lon="9.805265"><ele>20.857142857142858</ele><time>2026-04-03T10:15:05.773Z</time></trkpt><trkpt lat="44.1006717" lon="9.8053117"><ele>20.285714285714285</ele><time>2026-04-03T10:15:09.772Z</time></trkpt><trkpt lat="44.1007383" lon="9.80534"><ele>19.714285714285715</ele><time>2026-04-03T10:15:13.773Z</time></trkpt><trkpt lat="44.100805" lon="9.80536"><ele>19.142857142857142</ele><time>2026-04-03T10:15:17.772Z</time></trkpt><trkpt lat="44.1008767" lon="9.8053683"><ele>18.571428571428573</ele><time>2026-04-03T10:15:21.772Z</time></trkpt><trkpt lat="44.10094" lon="9.8053733"><ele>18.0</ele><time>2026-04-03T10:15:24.773Z</time></trkpt><trkpt lat="44.1010133" lon="9.8053783"><ele>17.833333333333332</ele><time>2026-04-03T10:15:28.773Z</time></trkpt><trkpt lat="44.1010867" lon="9.8053583"><ele>17.666666666666668</ele><time>2026-04-03T10:15:32.772Z</time></trkpt><trkpt lat="44.1011567" lon="9.80533"><ele>17.5</ele><time>2026-04-03T10:15:37.773Z</time></trkpt><trkpt lat="44.1012517" lon="9.8052433"><ele>17.333333333333336</ele><time>2026-04-03T10:17:22.772Z</time></trkpt><trkpt lat="44.1013283" lon="9.80527"><ele>17.166666666666668</ele><time>2026-04-03T10:17:27.772Z</time></trkpt><trkpt lat="44.10139" lon="9.8052483"><ele>17.0</ele><time>2026-04-03T10:17:34.771Z</time></trkpt><trkpt lat="44.10146" lon="9.8052183"><ele>16.999999999999996</ele><time>2026-04-03T10:17:39.771Z</time></trkpt><trkpt lat="44.1015233" lon="9.805195"><ele>17.0</ele><time>2026-04-03T10:17:44.772Z</time></trkpt><trkpt lat="44.1015883" lon="9.805155"><ele>17.0</ele><time>2026-04-03T10:17:49.771Z</time></trkpt><trkpt lat="44.101615" lon="9.8050667"><ele>17.0</ele><time>2026-04-03T10:17:53.771Z</time></trkpt><trkpt lat="44.1016583" lon="9.8050017"><ele>17.0</ele><time>2026-04-03T10:17:58.772Z</time></trkpt><trkpt lat="44.1017083" lon="9.804945"><ele>16.999999999999996</ele><time>2026-04-03T10:18:02.771Z</time></trkpt><trkpt lat="44.1017667" lon="9.8048917"><ele>17.0</ele><time>2026-04-03T10:18:08.772Z</time></trkpt><trkpt lat="44.1018017" lon="9.8048133"><ele>20.14285714285714</ele><time>2026-04-03T10:18:12.771Z</time></trkpt><trkpt lat="44.1018583" lon="9.8047583"><ele>23.285714285714285</ele><time>2026-04-03T10:18:16.771Z</time></trkpt><trkpt lat="44.101915" lon="9.8047183"><ele>26.42857142857143</ele><time>2026-04-03T10:18:19.772Z</time></trkpt><trkpt lat="44.10198" lon="9.8046417"><ele>29.57142857142857</ele><time>2026-04-03T10:18:23.771Z</time></trkpt><trkpt lat="44.102025" lon="9.80457"><ele>32.71428571428571</ele><time>2026-04-03T10:18:27.772Z</time></trkpt><trkpt lat="44.10203" lon="9.8044817"><ele>35.85714285714286</ele><time>2026-04-03T10:18:32.772Z</time></trkpt><trkpt lat="44.1020367" lon="9.8043867"><ele>39.0</ele><time>2026-04-03T10:18:36.772Z</time></trkpt><trkpt lat="44.10205" lon="9.80428"><ele>41.142857142857146</ele><time>2026-04-03T10:18:40.771Z</time></trkpt><trkpt lat="44.102055" lon="9.80419"><ele>43.285714285714285</ele><time>2026-04-03T10:18:45.771Z</time></trkpt><trkpt lat="44.10207" lon="9.8041017"><ele>45.42857142857143</ele><time>2026-04-03T10:18:49.771Z</time></trkpt><trkpt lat="44.10206" lon="9.8040083"><ele>47.57142857142857</ele><time>2026-04-03T10:18:53.771Z</time></trkpt><trkpt lat="44.102075" lon="9.8039183"><ele>49.71428571428571</ele><time>2026-04-03T10:18:56.772Z</time></trkpt><trkpt lat="44.10208" lon="9.8038233"><ele>51.857142857142854</ele><time>2026-04-03T10:19:00.772Z</time></trkpt><trkpt lat="44.1020817" lon="9.8037333"><ele>54.0</ele><time>2026-04-03T10:19:04.772Z</time></trkpt><trkpt lat="44.10205" lon="9.8036483"><ele>54.0</ele><time>2026-04-03T10:19:08.772Z</time></trkpt><trkpt lat="44.1020333" lon="9.8035567"><ele>54.0</ele><time>2026-04-03T10:19:13.772Z</time></trkpt><trkpt lat="44.102035" lon="9.8034483"><ele>54.0</ele><time>2026-04-03T10:19:18.772Z</time></trkpt><trkpt lat="44.1020583" lon="9.803345"><ele>54.0</ele><time>2026-04-03T10:19:23.771Z</time></trkpt><trkpt lat="44.1020717" lon="9.8032367"><ele>54.0</ele><time>2026-04-03T10:19:27.771Z</time></trkpt><trkpt lat="44.102085" lon="9.8031367"><ele>54.0</ele><time>2026-04-03T10:19:31.772Z</time></trkpt><trkpt lat="44.1020917" lon="9.8030233"><ele>55.42857142857143</ele><time>2026-04-03T10:19:36.771Z</time></trkpt><trkpt lat="44.1020633" lon="9.80293"><ele>56.857142857142854</ele><time>2026-04-03T10:19:41.771Z</time></trkpt><trkpt lat="44.1020067" lon="9.8028667"><ele>58.285714285714285</ele><time>2026-04-03T10:19:46.772Z</time></trkpt><trkpt lat="44.1019383" lon="9.802885"><ele>59.71428571428571</ele><time>2026-04-03T10:19:52.772Z</time></trkpt><trkpt lat="44.1018883" lon="9.8029517"><ele>61.14285714285714</ele><time>2026-04-03T10:19:57.772Z</time></trkpt><trkpt lat="44.1018717" lon="9.8030417"><ele>62.57142857142857</ele><time>2026-04-03T10:20:02.772Z</time></trkpt><trkpt lat="44.1018317" lon="9.8031367"><ele>64.0</ele><time>2026-04-03T10:20:07.771Z</time></trkpt><trkpt lat="44.1018033" lon="9.8032267"><ele>64.0</ele><time>2026-04-03T10:20:11.772Z</time></trkpt><trkpt lat="44.1017733" lon="9.803315"><ele>63.99999999999999</ele><time>2026-04-03T10:20:16.772Z</time></trkpt><trkpt lat="44.1017517" lon="9.8034017"><ele>64.0</ele><time>2026-04-03T10:20:20.771Z</time></trkpt><trkpt lat="44.1017283" lon="9.8034933"><ele>64.0</ele><time>2026-04-03T10:20:24.77Z</time></trkpt><trkpt lat="44.1017133" lon="9.8035983"><ele>63.99999999999999</ele><time>2026-04-03T10:20:28.77Z</time></trkpt><trkpt lat="44.1016783" lon="9.8036733"><ele>64.0</ele><time>2026-04-03T10:20:31.771Z</time></trkpt><trkpt lat="44.1016533" lon="9.8037583"><ele>64.0</ele><time>2026-04-03T10:20:34.771Z</time></trkpt><trkpt lat="44.1016433" lon="9.80386"><ele>63.2</ele><time>2026-04-03T10:20:39.77Z</time></trkpt><trkpt lat="44.1016583" lon="9.8039633"><ele>62.400000000000006</ele><time>2026-04-03T10:20:44.771Z</time></trkpt><trkpt lat="44.1016333" lon="9.8040567"><ele>61.6</ele><time>2026-04-03T10:20:49.771Z</time></trkpt><trkpt lat="44.1015983" lon="9.8041367"><ele>60.8</ele><time>2026-04-03T10:20:53.77Z</time></trkpt><trkpt lat="44.1015617" lon="9.804235"><ele>60.0</ele><time>2026-04-03T10:20:58.77Z</time></trkpt><trkpt lat="44.1014383" lon="9.8043717"><ele>60.0</ele><time>2026-04-03T10:21:10.771Z</time></trkpt><trkpt lat="44.1013633" lon="9.804365"><ele>60.0</ele><time>2026-04-03T10:21:13.771Z</time></trkpt><trkpt lat="44.1012983" lon="9.8043533"><ele>60.0</ele><time>2026-04-03T10:21:16.771Z</time></trkpt><trkpt lat="44.10122" lon="9.8043283"><ele>60.0</ele><time>2026-04-03T10:21:19.77Z</time></trkpt><trkpt lat="44.1011583" lon="9.8043"><ele>60.0</ele><time>2026-04-03T10:21:22.771Z</time></trkpt><trkpt lat="44.101095" lon="9.80425"><ele>60.0</ele><time>2026-04-03T10:21:26.77Z</time></trkpt><trkpt lat="44.1010333" lon="9.80419"><ele>60.0</ele><time>2026-04-03T10:21:30.77Z</time></trkpt><trkpt lat="44.1009817" lon="9.8041167"><ele>60.0</ele><time>2026-04-03T10:21:34.771Z</time></trkpt><trkpt lat="44.10091" lon="9.804055"><ele>60.0</ele><time>2026-04-03T10:21:38.77Z</time></trkpt><trkpt lat="44.1008533" lon="9.8040017"><ele>60.0</ele><time>2026-04-03T10:21:41.77Z</time></trkpt><trkpt lat="44.1007967" lon="9.80394"><ele>60.0</ele><time>2026-04-03T10:21:45.77Z</time></trkpt><trkpt lat="44.1007567" lon="9.8038667"><ele>60.0</ele><time>2026-04-03T10:21:48.771Z</time></trkpt><trkpt lat="44.1006917" lon="9.8037983"><ele>60.0</ele><time>2026-04-03T10:21:52.771Z</time></trkpt><trkpt lat="44.10065" lon="9.80373"><ele>60.0</ele><time>2026-04-03T10:21:55.771Z</time></trkpt><trkpt lat="44.1006" lon="9.803645"><ele>60.142857142857146</ele><time>2026-04-03T10:21:59.771Z</time></trkpt><trkpt lat="44.1005383" lon="9.8035733"><ele>60.28571428571428</ele><time>2026-04-03T10:22:03.771Z</time></trkpt><trkpt lat="44.10048" lon="9.8035317"><ele>60.42857142857142</ele><time>2026-04-03T10:22:07.771Z</time></trkpt><trkpt lat="44.1004083" lon="9.8034783"><ele>60.57142857142857</ele><time>2026-04-03T10:22:12.771Z</time></trkpt><trkpt lat="44.1003483" lon="9.803415"><ele>60.71428571428571</ele><time>2026-04-03T10:22:16.771Z</time></trkpt><trkpt lat="44.10029" lon="9.80335"><ele>60.85714285714285</ele><time>2026-04-03T10:22:22.771Z</time></trkpt><trkpt lat="44.1002267" lon="9.8033033"><ele>60.99999999999999</ele><time>2026-04-03T10:22:25.77Z</time></trkpt><trkpt lat="44.1001583" lon="9.80324"><ele>60.99999999999999</ele><time>2026-04-03T10:22:29.771Z</time></trkpt><trkpt lat="44.1001033" lon="9.8031633"><ele>61.0</ele><time>2026-04-03T10:22:33.771Z</time></trkpt><trkpt lat="44.10004" lon="9.8030967"><ele>60.99999999999999</ele><time>2026-04-03T10:22:37.77Z</time></trkpt><trkpt lat="44.0999833" lon="9.80305"><ele>60.99999999999999</ele><time>2026-04-03T10:22:41.771Z</time></trkpt><trkpt lat="44.0999283" lon="9.8030033"><ele>61.0</ele><time>2026-04-03T10:22:45.77Z</time></trkpt><trkpt lat="44.0998733" lon="9.8029483"><ele>60.99999999999999</ele><time>2026-04-03T10:22:49.771Z</time></trkpt><trkpt lat="44.099825" lon="9.8028883"><ele>60.99999999999999</ele><time>2026-04-03T10:22:55.771Z</time></trkpt><trkpt lat="44.0997683" lon="9.8028367"><ele>59.99999999999999</ele><time>2026-04-03T10:22:59.771Z</time></trkpt><trkpt lat="44.0997" lon="9.802795"><ele>59.0</ele><time>2026-04-03T10:23:03.771Z</time></trkpt><trkpt lat="44.099625" lon="9.80276"><ele>58.0</ele><time>2026-04-03T10:23:07.77Z</time></trkpt><trkpt lat="44.0995667" lon="9.802705"><ele>57.0</ele><time>2026-04-03T10:23:11.77Z</time></trkpt><trkpt lat="44.099505" lon="9.8026383"><ele>55.99999999999999</ele><time>2026-04-03T10:23:16.771Z</time></trkpt><trkpt lat="44.0994233" lon="9.80261"><ele>55.0</ele><time>2026-04-03T10:23:21.77Z</time></trkpt><trkpt lat="44.09934" lon="9.8025917"><ele>58.99999999999999</ele><time>2026-04-03T10:23:24.77Z</time></trkpt><trkpt lat="44.099255" lon="9.8025767"><ele>63.0</ele><time>2026-04-03T10:23:27.77Z</time></trkpt><trkpt lat="44.099175" lon="9.8025683"><ele>67.0</ele><time>2026-04-03T10:23:29.771Z</time></trkpt><trkpt lat="44.0991" lon="9.8025483"><ele>71.0</ele><time>2026-04-03T10:23:31.771Z</time></trkpt><trkpt lat="44.09902" lon="9.8025383"><ele>75.0</ele><time>2026-04-03T10:23:33.771Z</time></trkpt><trkpt lat="44.0989517" lon="9.8025133"><ele>79.0</ele><time>2026-04-03T10:23:35.771Z</time></trkpt><trkpt lat="44.0988833" lon="9.8024867"><ele>79.66666666666666</ele><time>2026-04-03T10:23:37.771Z</time></trkpt><trkpt lat="44.0988033" lon="9.8024683"><ele>80.33333333333333</ele><time>2026-04-03T10:23:39.771Z</time></trkpt><trkpt lat="44.09871" lon="9.802425"><ele>81.0</ele><time>2026-04-03T10:23:41.771Z</time></trkpt><trkpt lat="44.0986317" lon="9.80238"><ele>81.66666666666667</ele><time>2026-04-03T10:23:43.771Z</time></trkpt><trkpt lat="44.0985733" lon="9.8023317"><ele>82.33333333333334</ele><time>2026-04-03T10:23:45.771Z</time></trkpt><trkpt lat="44.098515" lon="9.8022567"><ele>83.0</ele><time>2026-04-03T10:23:47.771Z</time></trkpt><trkpt lat="44.0984567" lon="9.8021783"><ele>83.0</ele><time>2026-04-03T10:23:49.77Z</time></trkpt><trkpt lat="44.0983767" lon="9.8021283"><ele>83.0</ele><time>2026-04-03T10:23:52.771Z</time></trkpt><trkpt lat="44.0983117" lon="9.802125"><ele>83.0</ele><time>2026-04-03T10:24:00.77Z</time></trkpt><trkpt lat="44.09826" lon="9.8021783"><ele>83.0</ele><time>2026-04-03T10:24:04.769Z</time></trkpt><trkpt lat="44.0982817" lon="9.802345"><ele>83.0</ele><time>2026-04-03T10:24:21.77Z</time></trkpt><trkpt lat="44.0983217" lon="9.8024583"><ele>83.0</ele><time>2026-04-03T10:24:29.77Z</time></trkpt><trkpt lat="44.0983417" lon="9.80255"><ele>83.0</ele><time>2026-04-03T10:24:33.769Z</time></trkpt><trkpt lat="44.098375" lon="9.8026583"><ele>83.0</ele><time>2026-04-03T10:24:37.77Z</time></trkpt><trkpt lat="44.0984083" lon="9.8027567"><ele>83.0</ele><time>2026-04-03T10:24:41.77Z</time></trkpt><trkpt lat="44.0984483" lon="9.8028467"><ele>83.0</ele><time>2026-04-03T10:24:44.769Z</time></trkpt><trkpt lat="44.098455" lon="9.8029583"><ele>83.0</ele><time>2026-04-03T10:24:47.77Z</time></trkpt><trkpt lat="44.09846" lon="9.80308"><ele>83.0</ele><time>2026-04-03T10:24:50.77Z</time></trkpt><trkpt lat="44.0984367" lon="9.8032167"><ele>83.14285714285714</ele><time>2026-04-03T10:24:53.769Z</time></trkpt><trkpt lat="44.09841" lon="9.8032967"><ele>83.28571428571429</ele><time>2026-04-03T10:24:55.77Z</time></trkpt><trkpt lat="44.0983667" lon="9.8033883"><ele>83.42857142857143</ele><time>2026-04-03T10:24:58.77Z</time></trkpt><trkpt lat="44.0983217" lon="9.8034817"><ele>83.57142857142857</ele><time>2026-04-03T10:25:02.77Z</time></trkpt><trkpt lat="44.0982833" lon="9.8035583"><ele>83.71428571428572</ele><time>2026-04-03T10:25:05.769Z</time></trkpt><trkpt lat="44.098245" lon="9.8036333"><ele>83.85714285714286</ele><time>2026-04-03T10:25:10.77Z</time></trkpt><trkpt lat="44.098195" lon="9.80372"><ele>84.0</ele><time>2026-04-03T10:25:14.77Z</time></trkpt><trkpt lat="44.0981483" lon="9.8038033"><ele>88.5</ele><time>2026-04-03T10:25:19.769Z</time></trkpt><trkpt lat="44.098125" lon="9.8038867"><ele>93.0</ele><time>2026-04-03T10:25:23.77Z</time></trkpt><trkpt lat="44.098115" lon="9.8039983"><ele>97.5</ele><time>2026-04-03T10:25:28.77Z</time></trkpt><trkpt lat="44.09809" lon="9.8041117"><ele>102.0</ele><time>2026-04-03T10:25:32.769Z</time></trkpt><trkpt lat="44.0980817" lon="9.8042067"><ele>106.5</ele><time>2026-04-03T10:25:36.769Z</time></trkpt><trkpt lat="44.0980867" lon="9.8043017"><ele>111.0</ele><time>2026-04-03T10:25:41.77Z</time></trkpt><trkpt lat="44.09811" lon="9.8044933"><ele>111.0</ele><time>2026-04-03T10:25:53.769Z</time></trkpt><trkpt lat="44.0982133" lon="9.8046367"><ele>111.0</ele><time>2026-04-03T10:26:04.769Z</time></trkpt><trkpt lat="44.098325" lon="9.8047983"><ele>111.0</ele><time>2026-04-03T10:26:15.77Z</time></trkpt><trkpt lat="44.0983367" lon="9.80491"><ele>111.0</ele><time>2026-04-03T10:26:18.769Z</time></trkpt><trkpt lat="44.0983417" lon="9.8050033"><ele>108.16666666666667</ele><time>2026-04-03T10:26:20.77Z</time></trkpt><trkpt lat="44.0983433" lon="9.805095"><ele>105.33333333333333</ele><time>2026-04-03T10:26:22.769Z</time></trkpt><trkpt lat="44.0983167" lon="9.8051917"><ele>102.5</ele><time>2026-04-03T10:26:25.77Z</time></trkpt><trkpt lat="44.09829" lon="9.8052733"><ele>99.66666666666666</ele><time>2026-04-03T10:26:28.769Z</time></trkpt><trkpt lat="44.0982617" lon="9.8054767"><ele>96.83333333333333</ele><time>2026-04-03T10:26:36.77Z</time></trkpt><trkpt lat="44.0982267" lon="9.8055533"><ele>94.0</ele><time>2026-04-03T10:26:39.77Z</time></trkpt><trkpt lat="44.0981083" lon="9.8056883"><ele>94.0</ele><time>2026-04-03T10:26:49.769Z</time></trkpt><trkpt lat="44.09803" lon="9.8057183"><ele>94.0</ele><time>2026-04-03T10:26:52.77Z</time></trkpt><trkpt lat="44.0979517" lon="9.8057467"><ele>94.0</ele><time>2026-04-03T10:26:55.769Z</time></trkpt><trkpt lat="44.0978717" lon="9.8057617"><ele>94.0</ele><time>2026-04-03T10:26:58.77Z</time></trkpt><trkpt lat="44.0977867" lon="9.8057783"><ele>94.0</ele><time>2026-04-03T10:27:02.769Z</time></trkpt><trkpt lat="44.097715" lon="9.8057683"><ele>94.0</ele><time>2026-04-03T10:27:05.77Z</time></trkpt><trkpt lat="44.0976383" lon="9.8057317"><ele>94.0</ele><time>2026-04-03T10:27:09.77Z</time></trkpt><trkpt lat="44.09757" lon="9.80568"><ele>94.0</ele><time>2026-04-03T10:27:13.77Z</time></trkpt><trkpt lat="44.0975067" lon="9.805645"><ele>94.0</ele><time>2026-04-03T10:27:16.77Z</time></trkpt><trkpt lat="44.0974367" lon="9.80561"><ele>94.0</ele><time>2026-04-03T10:27:19.769Z</time></trkpt><trkpt lat="44.0973783" lon="9.80557"><ele>94.0</ele><time>2026-04-03T10:27:22.769Z</time></trkpt><trkpt lat="44.0973083" lon="9.80554"><ele>94.0</ele><time>2026-04-03T10:27:26.77Z</time></trkpt><trkpt lat="44.0972317" lon="9.80553"><ele>94.0</ele><time>2026-04-03T10:27:30.769Z</time></trkpt><trkpt lat="44.09717" lon="9.8055533"><ele>96.0</ele><time>2026-04-03T10:27:33.77Z</time></trkpt><trkpt lat="44.0971083" lon="9.80561"><ele>98.0</ele><time>2026-04-03T10:27:36.768Z</time></trkpt><trkpt lat="44.097065" lon="9.8056883"><ele>100.0</ele><time>2026-04-03T10:27:40.768Z</time></trkpt><trkpt lat="44.0970333" lon="9.8057717"><ele>102.0</ele><time>2026-04-03T10:27:44.769Z</time></trkpt><trkpt lat="44.0969883" lon="9.80585"><ele>104.00000000000001</ele><time>2026-04-03T10:27:48.769Z</time></trkpt><trkpt lat="44.0969233" lon="9.80592"><ele>106.0</ele><time>2026-04-03T10:27:52.769Z</time></trkpt><trkpt lat="44.0968533" lon="9.8059833"><ele>106.83333333333334</ele><time>2026-04-03T10:27:59.769Z</time></trkpt><trkpt lat="44.096775" lon="9.806065"><ele>107.66666666666667</ele><time>2026-04-03T10:28:11.769Z</time></trkpt><trkpt lat="44.0967083" lon="9.8061"><ele>108.5</ele><time>2026-04-03T10:28:15.769Z</time></trkpt><trkpt lat="44.0966383" lon="9.8061317"><ele>109.33333333333334</ele><time>2026-04-03T10:28:19.769Z</time></trkpt><trkpt lat="44.096575" lon="9.8061617"><ele>110.16666666666667</ele><time>2026-04-03T10:28:22.769Z</time></trkpt><trkpt lat="44.0965" lon="9.80618"><ele>111.0</ele><time>2026-04-03T10:28:26.769Z</time></trkpt><trkpt lat="44.096435" lon="9.8062267"><ele>111.0</ele><time>2026-04-03T10:28:29.769Z</time></trkpt><trkpt lat="44.09637" lon="9.80627"><ele>111.0</ele><time>2026-04-03T10:28:32.768Z</time></trkpt><trkpt lat="44.0963033" lon="9.8063183"><ele>111.0</ele><time>2026-04-03T10:28:35.769Z</time></trkpt><trkpt lat="44.0962383" lon="9.8063667"><ele>111.0</ele><time>2026-04-03T10:28:38.768Z</time></trkpt><trkpt lat="44.096185" lon="9.8064383"><ele>111.0</ele><time>2026-04-03T10:28:42.769Z</time></trkpt><trkpt lat="44.096135" lon="9.8064983"><ele>111.0</ele><time>2026-04-03T10:28:46.768Z</time></trkpt><trkpt lat="44.0960783" lon="9.8065567"><ele>111.0</ele><time>2026-04-03T10:28:50.769Z</time></trkpt><trkpt lat="44.096025" lon="9.8066067"><ele>111.0</ele><time>2026-04-03T10:28:54.769Z</time></trkpt><trkpt lat="44.0959617" lon="9.806665"><ele>111.0</ele><time>2026-04-03T10:28:59.769Z</time></trkpt><trkpt lat="44.09589" lon="9.8067017"><ele>111.0</ele><time>2026-04-03T10:29:06.768Z</time></trkpt><trkpt lat="44.0958233" lon="9.8067267"><ele>111.0</ele><time>2026-04-03T10:29:10.768Z</time></trkpt><trkpt lat="44.095755" lon="9.8067067"><ele>111.0</ele><time>2026-04-03T10:29:14.769Z</time></trkpt><trkpt lat="44.0957483" lon="9.8066167"><ele>111.0</ele><time>2026-04-03T10:29:21.769Z</time></trkpt><trkpt lat="44.0958217" lon="9.8065917"><ele>111.0</ele><time>2026-04-03T10:29:27.769Z</time></trkpt><trkpt lat="44.095895" lon="9.8065733"><ele>111.0</ele><time>2026-04-03T10:29:33.769Z</time></trkpt><trkpt lat="44.0959767" lon="9.80649"><ele>111.0</ele><time>2026-04-03T10:29:40.768Z</time></trkpt><trkpt lat="44.0960333" lon="9.8064333"><ele>111.0</ele><time>2026-04-03T10:29:45.769Z</time></trkpt><trkpt lat="44.0960817" lon="9.8063733"><ele>111.0</ele><time>2026-04-03T10:29:49.768Z</time></trkpt><trkpt lat="44.09615" lon="9.8062667"><ele>111.0</ele><time>2026-04-03T10:29:55.768Z</time></trkpt><trkpt lat="44.0961917" lon="9.8061733"><ele>111.0</ele><time>2026-04-03T10:29:58.768Z</time></trkpt><trkpt lat="44.0962217" lon="9.806095"><ele>111.0</ele><time>2026-04-03T10:30:01.768Z</time></trkpt><trkpt lat="44.0962767" lon="9.8060367"><ele>111.0</ele><time>2026-04-03T10:30:05.769Z</time></trkpt><trkpt lat="44.0963317" lon="9.8059483"><ele>111.0</ele><time>2026-04-03T10:30:09.768Z</time></trkpt><trkpt lat="44.0963783" lon="9.80587"><ele>111.0</ele><time>2026-04-03T10:30:12.768Z</time></trkpt><trkpt lat="44.0964433" lon="9.80576"><ele>111.0</ele><time>2026-04-03T10:30:16.769Z</time></trkpt><trkpt lat="44.0964867" lon="9.8056917"><ele>111.0</ele><time>2026-04-03T10:30:19.768Z</time></trkpt><trkpt lat="44.09653" lon="9.8056183"><ele>110.28571428571428</ele><time>2026-04-03T10:30:22.768Z</time></trkpt><trkpt lat="44.09659" lon="9.8055483"><ele>109.57142857142858</ele><time>2026-04-03T10:30:26.769Z</time></trkpt><trkpt lat="44.09663" lon="9.8054717"><ele>108.85714285714286</ele><time>2026-04-03T10:30:30.768Z</time></trkpt><trkpt lat="44.09665" lon="9.805385"><ele>108.14285714285714</ele><time>2026-04-03T10:30:33.768Z</time></trkpt><trkpt lat="44.096695" lon="9.80531"><ele>107.42857142857142</ele><time>2026-04-03T10:30:37.768Z</time></trkpt><trkpt lat="44.0967567" lon="9.8052483"><ele>106.71428571428572</ele><time>2026-04-03T10:30:42.769Z</time></trkpt><trkpt lat="44.0968017" lon="9.805185"><ele>106.0</ele><time>2026-04-03T10:30:46.768Z</time></trkpt><trkpt lat="44.09686" lon="9.8051233"><ele>109.0</ele><time>2026-04-03T10:30:52.769Z</time></trkpt><trkpt lat="44.09692" lon="9.8050783"><ele>112.0</ele><time>2026-04-03T10:30:57.768Z</time></trkpt><trkpt lat="44.0969817" lon="9.8050167"><ele>115.0</ele><time>2026-04-03T10:31:01.768Z</time></trkpt><trkpt lat="44.0970417" lon="9.8049333"><ele>118.0</ele><time>2026-04-03T10:31:05.769Z</time></trkpt><trkpt lat="44.0970883" lon="9.804865"><ele>121.0</ele><time>2026-04-03T10:31:09.768Z</time></trkpt><trkpt lat="44.0971567" lon="9.804805"><ele>124.0</ele><time>2026-04-03T10:31:14.769Z</time></trkpt><trkpt lat="44.09721" lon="9.8047567"><ele>127.0</ele><time>2026-04-03T10:31:18.768Z</time></trkpt><trkpt lat="44.0972683" lon="9.804685"><ele>127.0</ele><time>2026-04-03T10:31:22.768Z</time></trkpt><trkpt lat="44.09732" lon="9.8046267"><ele>127.0</ele><time>2026-04-03T10:31:26.767Z</time></trkpt><trkpt lat="44.0973633" lon="9.8045483"><ele>127.0</ele><time>2026-04-03T10:31:30.767Z</time></trkpt><trkpt lat="44.0973933" lon="9.8044583"><ele>127.0</ele><time>2026-04-03T10:31:34.768Z</time></trkpt><trkpt lat="44.09742" lon="9.8043517"><ele>127.0</ele><time>2026-04-03T10:31:39.767Z</time></trkpt><trkpt lat="44.0974483" lon="9.8042567"><ele>127.0</ele><time>2026-04-03T10:31:43.768Z</time></trkpt><trkpt lat="44.0974617" lon="9.80416"><ele>127.0</ele><time>2026-04-03T10:31:48.767Z</time></trkpt><trkpt lat="44.097465" lon="9.80405"><ele>126.57142857142858</ele><time>2026-04-03T10:31:53.768Z</time></trkpt><trkpt lat="44.0974683" lon="9.80396"><ele>126.14285714285714</ele><time>2026-04-03T10:31:58.768Z</time></trkpt><trkpt lat="44.09746" lon="9.803855"><ele>125.71428571428572</ele><time>2026-04-03T10:32:04.768Z</time></trkpt><trkpt lat="44.0974617" lon="9.8037667"><ele>125.28571428571429</ele><time>2026-04-03T10:32:08.767Z</time></trkpt><trkpt lat="44.0974417" lon="9.8036733"><ele>124.85714285714286</ele><time>2026-04-03T10:32:12.767Z</time></trkpt><trkpt lat="44.0974433" lon="9.8035833"><ele>124.42857142857143</ele><time>2026-04-03T10:32:15.767Z</time></trkpt><trkpt lat="44.0974433" lon="9.803475"><ele>124.0</ele><time>2026-04-03T10:32:19.767Z</time></trkpt><trkpt lat="44.0974333" lon="9.8033667"><ele>124.0</ele><time>2026-04-03T10:32:23.768Z</time></trkpt><trkpt lat="44.0974283" lon="9.8032767"><ele>124.00000000000001</ele><time>2026-04-03T10:32:27.767Z</time></trkpt><trkpt lat="44.0974367" lon="9.8031733"><ele>124.0</ele><time>2026-04-03T10:32:31.768Z</time></trkpt><trkpt lat="44.097425" lon="9.8030667"><ele>124.0</ele><time>2026-04-03T10:32:35.768Z</time></trkpt><trkpt lat="44.09738" lon="9.8029833"><ele>124.00000000000001</ele><time>2026-04-03T10:32:39.767Z</time></trkpt><trkpt lat="44.0973267" lon="9.8029317"><ele>124.0</ele><time>2026-04-03T10:32:42.768Z</time></trkpt><trkpt lat="44.09727" lon="9.8029783"><ele>124.0</ele><time>2026-04-03T10:32:46.768Z</time></trkpt><trkpt lat="44.097245" lon="9.8030667"><ele>130.2</ele><time>2026-04-03T10:32:52.767Z</time></trkpt><trkpt lat="44.0972533" lon="9.8032317"><ele>136.4</ele><time>2026-04-03T10:33:08.767Z</time></trkpt><trkpt lat="44.0972667" lon="9.803345"><ele>142.6</ele><time>2026-04-03T10:33:13.767Z</time></trkpt><trkpt lat="44.0972583" lon="9.8034767"><ele>148.8</ele><time>2026-04-03T10:33:19.768Z</time></trkpt><trkpt lat="44.0972633" lon="9.8036167"><ele>155.0</ele><time>2026-04-03T10:33:24.768Z</time></trkpt><trkpt lat="44.097255" lon="9.8037167"><ele>155.0</ele><time>2026-04-03T10:33:28.768Z</time></trkpt><trkpt lat="44.0972367" lon="9.8038267"><ele>155.0</ele><time>2026-04-03T10:33:32.768Z</time></trkpt><trkpt lat="44.0972233" lon="9.8039217"><ele>155.0</ele><time>2026-04-03T10:33:35.767Z</time></trkpt><trkpt lat="44.0971983" lon="9.8040367"><ele>155.0</ele><time>2026-04-03T10:33:38.767Z</time></trkpt><trkpt lat="44.09715" lon="9.8041367"><ele>155.0</ele><time>2026-04-03T10:33:41.768Z</time></trkpt><trkpt lat="44.09709" lon="9.80422"><ele>155.0</ele><time>2026-04-03T10:33:44.767Z</time></trkpt><trkpt lat="44.0970383" lon="9.8042933"><ele>155.28571428571428</ele><time>2026-04-03T10:33:47.768Z</time></trkpt><trkpt lat="44.0969817" lon="9.8043333"><ele>155.57142857142856</ele><time>2026-04-03T10:33:50.767Z</time></trkpt><trkpt lat="44.096915" lon="9.804365"><ele>155.85714285714283</ele><time>2026-04-03T10:33:53.768Z</time></trkpt><trkpt lat="44.0968467" lon="9.8043833"><ele>156.14285714285714</ele><time>2026-04-03T10:33:56.767Z</time></trkpt><trkpt lat="44.096785" lon="9.8044217"><ele>156.42857142857142</ele><time>2026-04-03T10:33:59.767Z</time></trkpt><trkpt lat="44.09671" lon="9.8044533"><ele>156.7142857142857</ele><time>2026-04-03T10:34:02.767Z</time></trkpt><trkpt lat="44.0966417" lon="9.80447"><ele>157.0</ele><time>2026-04-03T10:34:05.768Z</time></trkpt><trkpt lat="44.0965733" lon="9.80449"><ele>157.0</ele><time>2026-04-03T10:34:08.768Z</time></trkpt><trkpt lat="44.09651" lon="9.804515"><ele>157.0</ele><time>2026-04-03T10:34:11.767Z</time></trkpt><trkpt lat="44.0964383" lon="9.80456"><ele>157.0</ele><time>2026-04-03T10:34:14.768Z</time></trkpt><trkpt lat="44.0963733" lon="9.8046067"><ele>157.0</ele><time>2026-04-03T10:34:17.768Z</time></trkpt><trkpt lat="44.096325" lon="9.8046917"><ele>157.0</ele><time>2026-04-03T10:34:22.767Z</time></trkpt><trkpt lat="44.0962733" lon="9.8047633"><ele>157.0</ele><time>2026-04-03T10:34:25.768Z</time></trkpt><trkpt lat="44.096225" lon="9.8048583"><ele>156.99999999999997</ele><time>2026-04-03T10:34:29.768Z</time></trkpt><trkpt lat="44.09617" lon="9.8049283"><ele>157.0</ele><time>2026-04-03T10:34:32.768Z</time></trkpt><trkpt lat="44.096125" lon="9.805005"><ele>157.0</ele><time>2026-04-03T10:34:36.768Z</time></trkpt><trkpt lat="44.0960817" lon="9.805095"><ele>157.0</ele><time>2026-04-03T10:34:40.768Z</time></trkpt><trkpt lat="44.0960217" lon="9.8051633"><ele>157.0</ele><time>2026-04-03T10:34:44.768Z</time></trkpt><trkpt lat="44.0959733" lon="9.80524"><ele>156.99999999999997</ele><time>2026-04-03T10:34:48.767Z</time></trkpt><trkpt lat="44.09591" lon="9.8052933"><ele>157.0</ele><time>2026-04-03T10:34:52.768Z</time></trkpt><trkpt lat="44.0958483" lon="9.8053433"><ele>155.42857142857142</ele><time>2026-04-03T10:34:55.768Z</time></trkpt><trkpt lat="44.0957983" lon="9.8054133"><ele>153.85714285714286</ele><time>2026-04-03T10:34:59.768Z</time></trkpt><trkpt lat="44.095745" lon="9.8054717"><ele>152.28571428571428</ele><time>2026-04-03T10:35:03.767Z</time></trkpt><trkpt lat="44.0956883" lon="9.8055217"><ele>150.71428571428572</ele><time>2026-04-03T10:35:06.766Z</time></trkpt><trkpt lat="44.0956317" lon="9.8055933"><ele>149.14285714285714</ele><time>2026-04-03T10:35:09.766Z</time></trkpt><trkpt lat="44.0955933" lon="9.805665"><ele>147.57142857142856</ele><time>2026-04-03T10:35:11.767Z</time></trkpt><trkpt lat="44.0955267" lon="9.8057617"><ele>146.0</ele><time>2026-04-03T10:35:13.766Z</time></trkpt><trkpt lat="44.09545" lon="9.8058683"><ele>146.0</ele><time>2026-04-03T10:35:15.767Z</time></trkpt><trkpt lat="44.0953767" lon="9.8059417"><ele>146.0</ele><time>2026-04-03T10:35:17.766Z</time></trkpt><trkpt lat="44.09528" lon="9.8059783"><ele>146.0</ele><time>2026-04-03T10:35:19.767Z</time></trkpt><trkpt lat="44.0951733" lon="9.8060017"><ele>146.0</ele><time>2026-04-03T10:35:21.767Z</time></trkpt><trkpt lat="44.09511" lon="9.8060033"><ele>146.0</ele><time>2026-04-03T10:35:22.767Z</time></trkpt><trkpt lat="44.0950433" lon="9.806005"><ele>146.0</ele><time>2026-04-03T10:35:23.766Z</time></trkpt><trkpt lat="44.0949167" lon="9.8060067"><ele>143.2</ele><time>2026-04-03T10:35:25.766Z</time></trkpt><trkpt lat="44.0947983" lon="9.806025"><ele>140.39999999999998</ele><time>2026-04-03T10:35:27.767Z</time></trkpt><trkpt lat="44.09468" lon="9.8060617"><ele>137.6</ele><time>2026-04-03T10:35:29.767Z</time></trkpt><trkpt lat="44.0945567" lon="9.8060983"><ele>134.79999999999998</ele><time>2026-04-03T10:35:31.767Z</time></trkpt><trkpt lat="44.094495" lon="9.8061183"><ele>132.0</ele><time>2026-04-03T10:35:32.766Z</time></trkpt><trkpt lat="44.0943817" lon="9.8061617"><ele>132.0</ele><time>2026-04-03T10:35:34.766Z</time></trkpt><trkpt lat="44.0942833" lon="9.8062017"><ele>132.0</ele><time>2026-04-03T10:35:36.767Z</time></trkpt><trkpt lat="44.0942017" lon="9.8062567"><ele>132.0</ele><time>2026-04-03T10:35:38.767Z</time></trkpt><trkpt lat="44.0941367" lon="9.8063133"><ele>132.0</ele><time>2026-04-03T10:35:40.766Z</time></trkpt><trkpt lat="44.09407" lon="9.8063683"><ele>132.0</ele><time>2026-04-03T10:35:42.766Z</time></trkpt><trkpt lat="44.0939717" lon="9.806475"><ele>131.79999999999998</ele><time>2026-04-03T10:35:44.767Z</time></trkpt><trkpt lat="44.093885" lon="9.8064367"><ele>131.6</ele><time>2026-04-03T10:35:46.766Z</time></trkpt><trkpt lat="44.093815" lon="9.80629"><ele>131.39999999999998</ele><time>2026-04-03T10:35:48.766Z</time></trkpt><trkpt lat="44.0937583" lon="9.8062117"><ele>131.2</ele><time>2026-04-03T10:35:50.767Z</time></trkpt><trkpt lat="44.093705" lon="9.8060667"><ele>131.0</ele><time>2026-04-03T10:36:08.766Z</time></trkpt><trkpt lat="44.0935933" lon="9.8060833"><ele>131.0</ele><time>2026-04-03T10:36:28.767Z</time></trkpt><trkpt lat="44.093495" lon="9.8060383"><ele>131.0</ele><time>2026-04-03T10:36:41.767Z</time></trkpt></trkseg></trk></gpx>